<?xml version="1.0" encoding="UTF-8" standalone="no" ?>
<gpx xmlns="http://www.topografix.com/GPX/1/1" xmlns:xsi="http://www.w3.org/2001/XMLSchema-instance" xsi:schemaLocation="http://www.topografix.com/GPX/1/1 http://www.topografix.com/GPX/1/1/gpx.xsd" version="1.1" creator="VisuGPX - https://www.visugpx.com">
  <metadata>
    <name>vol JP 12 12 2013</name>
    <desc><![CDATA[vol jp piper etampes loire Orléans
]]></desc>
  </metadata>
  <trk>
    <name><![CDATA[SportyPalTrack]]></name>
    <desc><![CDATA[The track description]]></desc>
    <trkseg>
      <trkpt lat="48.37879" lon="2.07395">
        <ele>196</ele>
        <time>2013-12-12T15:20:53Z</time>
      </trkpt>
      <trkpt lat="48.37877" lon="2.07381">
        <ele>195.75</ele>
        <time>2013-12-12T15:20:57Z</time>
      </trkpt>
      <trkpt lat="48.37867" lon="2.07354">
        <ele>195</ele>
        <time>2013-12-12T15:21:01Z</time>
      </trkpt>
      <trkpt lat="48.3786" lon="2.07328">
        <ele>194</ele>
        <time>2013-12-12T15:21:05Z</time>
      </trkpt>
      <trkpt lat="48.37862" lon="2.0731">
        <ele>194</ele>
        <time>2013-12-12T15:21:08Z</time>
      </trkpt>
      <trkpt lat="48.37865" lon="2.07306">
        <ele>194</ele>
        <time>2013-12-12T15:21:12Z</time>
      </trkpt>
      <trkpt lat="48.37865" lon="2.07306">
        <ele>194</ele>
        <time>2013-12-12T15:21:15Z</time>
      </trkpt>
      <trkpt lat="48.37865" lon="2.07306">
        <ele>194</ele>
        <time>2013-12-12T15:21:19Z</time>
      </trkpt>
      <trkpt lat="48.37865" lon="2.07306">
        <ele>194</ele>
        <time>2013-12-12T15:21:23Z</time>
      </trkpt>
      <trkpt lat="48.37865" lon="2.07306">
        <ele>194</ele>
        <time>2013-12-12T15:21:27Z</time>
      </trkpt>
      <trkpt lat="48.37866" lon="2.07305">
        <ele>194</ele>
        <time>2013-12-12T15:21:31Z</time>
      </trkpt>
      <trkpt lat="48.37874" lon="2.07296">
        <ele>194</ele>
        <time>2013-12-12T15:21:35Z</time>
      </trkpt>
      <trkpt lat="48.37884" lon="2.07285">
        <ele>194</ele>
        <time>2013-12-12T15:21:38Z</time>
      </trkpt>
      <trkpt lat="48.37895" lon="2.07274">
        <ele>193</ele>
        <time>2013-12-12T15:21:42Z</time>
      </trkpt>
      <trkpt lat="48.37905" lon="2.07275">
        <ele>193</ele>
        <time>2013-12-12T15:21:46Z</time>
      </trkpt>
      <trkpt lat="48.37908" lon="2.0728">
        <ele>193</ele>
        <time>2013-12-12T15:21:49Z</time>
      </trkpt>
      <trkpt lat="48.37908" lon="2.0728">
        <ele>193</ele>
        <time>2013-12-12T15:21:52Z</time>
      </trkpt>
      <trkpt lat="48.3791" lon="2.07284">
        <ele>193</ele>
        <time>2013-12-12T15:21:55Z</time>
      </trkpt>
      <trkpt lat="48.37921" lon="2.07307">
        <ele>193</ele>
        <time>2013-12-12T15:21:59Z</time>
      </trkpt>
      <trkpt lat="48.37949" lon="2.0737">
        <ele>193</ele>
        <time>2013-12-12T15:22:03Z</time>
      </trkpt>
      <trkpt lat="48.37993" lon="2.07472">
        <ele>193.75</ele>
        <time>2013-12-12T15:22:07Z</time>
      </trkpt>
      <trkpt lat="48.38054" lon="2.07609">
        <ele>194</ele>
        <time>2013-12-12T15:22:11Z</time>
      </trkpt>
      <trkpt lat="48.38118" lon="2.07746">
        <ele>195.33333333333</ele>
        <time>2013-12-12T15:22:14Z</time>
      </trkpt>
      <trkpt lat="48.38185" lon="2.07898">
        <ele>197.5</ele>
        <time>2013-12-12T15:22:18Z</time>
      </trkpt>
      <trkpt lat="48.38264" lon="2.08079">
        <ele>201</ele>
        <time>2013-12-12T15:22:22Z</time>
      </trkpt>
      <trkpt lat="48.3833" lon="2.08238">
        <ele>207</ele>
        <time>2013-12-12T15:22:25Z</time>
      </trkpt>
      <trkpt lat="48.3839" lon="2.08375">
        <ele>216.33333333333</ele>
        <time>2013-12-12T15:22:28Z</time>
      </trkpt>
      <trkpt lat="48.38462" lon="2.08537">
        <ele>230.75</ele>
        <time>2013-12-12T15:22:32Z</time>
      </trkpt>
      <trkpt lat="48.38547" lon="2.08723">
        <ele>248.75</ele>
        <time>2013-12-12T15:22:36Z</time>
      </trkpt>
      <trkpt lat="48.38638" lon="2.08907">
        <ele>269.5</ele>
        <time>2013-12-12T15:22:40Z</time>
      </trkpt>
      <trkpt lat="48.38747" lon="2.09095">
        <ele>290.25</ele>
        <time>2013-12-12T15:22:44Z</time>
      </trkpt>
      <trkpt lat="48.38853" lon="2.09265">
        <ele>304.66666666667</ele>
        <time>2013-12-12T15:22:47Z</time>
      </trkpt>
      <trkpt lat="48.3896" lon="2.09437">
        <ele>317</ele>
        <time>2013-12-12T15:22:51Z</time>
      </trkpt>
      <trkpt lat="48.39081" lon="2.09642">
        <ele>329.5</ele>
        <time>2013-12-12T15:22:55Z</time>
      </trkpt>
      <trkpt lat="48.39182" lon="2.09875">
        <ele>342.5</ele>
        <time>2013-12-12T15:22:59Z</time>
      </trkpt>
      <trkpt lat="48.39247" lon="2.10129">
        <ele>361.25</ele>
        <time>2013-12-12T15:23:03Z</time>
      </trkpt>
      <trkpt lat="48.39269" lon="2.10362">
        <ele>377</ele>
        <time>2013-12-12T15:23:06Z</time>
      </trkpt>
      <trkpt lat="48.39264" lon="2.10566">
        <ele>388.66666666667</ele>
        <time>2013-12-12T15:23:09Z</time>
      </trkpt>
      <trkpt lat="48.39231" lon="2.10794">
        <ele>403</ele>
        <time>2013-12-12T15:23:13Z</time>
      </trkpt>
      <trkpt lat="48.39163" lon="2.11029">
        <ele>422.75</ele>
        <time>2013-12-12T15:23:17Z</time>
      </trkpt>
      <trkpt lat="48.39083" lon="2.11211">
        <ele>444</ele>
        <time>2013-12-12T15:23:20Z</time>
      </trkpt>
      <trkpt lat="48.38976" lon="2.1135">
        <ele>464.75</ele>
        <time>2013-12-12T15:23:24Z</time>
      </trkpt>
      <trkpt lat="48.38847" lon="2.11447">
        <ele>484.66666666667</ele>
        <time>2013-12-12T15:23:27Z</time>
      </trkpt>
      <trkpt lat="48.38738" lon="2.11525">
        <ele>501.33333333333</ele>
        <time>2013-12-12T15:23:30Z</time>
      </trkpt>
      <trkpt lat="48.38629" lon="2.11595">
        <ele>518.66666666667</ele>
        <time>2013-12-12T15:23:33Z</time>
      </trkpt>
      <trkpt lat="48.38502" lon="2.11662">
        <ele>538.25</ele>
        <time>2013-12-12T15:23:37Z</time>
      </trkpt>
      <trkpt lat="48.38356" lon="2.11717">
        <ele>559.5</ele>
        <time>2013-12-12T15:23:41Z</time>
      </trkpt>
      <trkpt lat="48.38228" lon="2.11755">
        <ele>575</ele>
        <time>2013-12-12T15:23:44Z</time>
      </trkpt>
      <trkpt lat="48.381" lon="2.1179">
        <ele>590</ele>
        <time>2013-12-12T15:23:48Z</time>
      </trkpt>
      <trkpt lat="48.37972" lon="2.1182">
        <ele>608.33333333333</ele>
        <time>2013-12-12T15:23:51Z</time>
      </trkpt>
      <trkpt lat="48.3785" lon="2.11842">
        <ele>630</ele>
        <time>2013-12-12T15:23:55Z</time>
      </trkpt>
      <trkpt lat="48.37731" lon="2.1186">
        <ele>650.66666666667</ele>
        <time>2013-12-12T15:23:58Z</time>
      </trkpt>
      <trkpt lat="48.37611" lon="2.11887">
        <ele>669.25</ele>
        <time>2013-12-12T15:24:02Z</time>
      </trkpt>
      <trkpt lat="48.37488" lon="2.11923">
        <ele>683.66666666667</ele>
        <time>2013-12-12T15:24:05Z</time>
      </trkpt>
      <trkpt lat="48.3738" lon="2.1196">
        <ele>695</ele>
        <time>2013-12-12T15:24:08Z</time>
      </trkpt>
      <trkpt lat="48.37257" lon="2.1201">
        <ele>707.75</ele>
        <time>2013-12-12T15:24:12Z</time>
      </trkpt>
      <trkpt lat="48.37111" lon="2.12068">
        <ele>725</ele>
        <time>2013-12-12T15:24:16Z</time>
      </trkpt>
      <trkpt lat="48.3698" lon="2.1211">
        <ele>740.66666666667</ele>
        <time>2013-12-12T15:24:19Z</time>
      </trkpt>
      <trkpt lat="48.36868" lon="2.1214">
        <ele>754</ele>
        <time>2013-12-12T15:24:22Z</time>
      </trkpt>
      <trkpt lat="48.36734" lon="2.12163">
        <ele>773.25</ele>
        <time>2013-12-12T15:24:26Z</time>
      </trkpt>
      <trkpt lat="48.3658" lon="2.12187">
        <ele>793.5</ele>
        <time>2013-12-12T15:24:30Z</time>
      </trkpt>
      <trkpt lat="48.36442" lon="2.1222">
        <ele>809</ele>
        <time>2013-12-12T15:24:33Z</time>
      </trkpt>
      <trkpt lat="48.36325" lon="2.12267">
        <ele>819.33333333333</ele>
        <time>2013-12-12T15:24:36Z</time>
      </trkpt>
      <trkpt lat="48.36189" lon="2.12338">
        <ele>831.5</ele>
        <time>2013-12-12T15:24:40Z</time>
      </trkpt>
      <trkpt lat="48.36056" lon="2.12422">
        <ele>843.33333333333</ele>
        <time>2013-12-12T15:24:43Z</time>
      </trkpt>
      <trkpt lat="48.35925" lon="2.12516">
        <ele>854.75</ele>
        <time>2013-12-12T15:24:47Z</time>
      </trkpt>
      <trkpt lat="48.35796" lon="2.12622">
        <ele>866.66666666667</ele>
        <time>2013-12-12T15:24:50Z</time>
      </trkpt>
      <trkpt lat="48.35687" lon="2.12719">
        <ele>878</ele>
        <time>2013-12-12T15:24:53Z</time>
      </trkpt>
      <trkpt lat="48.35559" lon="2.12836">
        <ele>893</ele>
        <time>2013-12-12T15:24:57Z</time>
      </trkpt>
      <trkpt lat="48.3543" lon="2.12951">
        <ele>910</ele>
        <time>2013-12-12T15:25:00Z</time>
      </trkpt>
      <trkpt lat="48.35323" lon="2.13048">
        <ele>926</ele>
        <time>2013-12-12T15:25:03Z</time>
      </trkpt>
      <trkpt lat="48.352" lon="2.13163">
        <ele>942.75</ele>
        <time>2013-12-12T15:25:07Z</time>
      </trkpt>
      <trkpt lat="48.35065" lon="2.13313">
        <ele>961.75</ele>
        <time>2013-12-12T15:25:11Z</time>
      </trkpt>
      <trkpt lat="48.34939" lon="2.13487">
        <ele>982.75</ele>
        <time>2013-12-12T15:25:15Z</time>
      </trkpt>
      <trkpt lat="48.34838" lon="2.13649">
        <ele>1002.3333333333</ele>
        <time>2013-12-12T15:25:18Z</time>
      </trkpt>
      <trkpt lat="48.34743" lon="2.1382">
        <ele>1020.25</ele>
        <time>2013-12-12T15:25:22Z</time>
      </trkpt>
      <trkpt lat="48.34643" lon="2.14027">
        <ele>1039.5</ele>
        <time>2013-12-12T15:25:26Z</time>
      </trkpt>
      <trkpt lat="48.34547" lon="2.14242">
        <ele>1056</ele>
        <time>2013-12-12T15:25:30Z</time>
      </trkpt>
      <trkpt lat="48.34451" lon="2.1446">
        <ele>1072.25</ele>
        <time>2013-12-12T15:25:34Z</time>
      </trkpt>
      <trkpt lat="48.34357" lon="2.14683">
        <ele>1089</ele>
        <time>2013-12-12T15:25:38Z</time>
      </trkpt>
      <trkpt lat="48.3427" lon="2.14914">
        <ele>1105</ele>
        <time>2013-12-12T15:25:42Z</time>
      </trkpt>
      <trkpt lat="48.34194" lon="2.1512">
        <ele>1119</ele>
        <time>2013-12-12T15:25:45Z</time>
      </trkpt>
      <trkpt lat="48.34134" lon="2.15299">
        <ele>1130</ele>
        <time>2013-12-12T15:25:48Z</time>
      </trkpt>
      <trkpt lat="48.34065" lon="2.155">
        <ele>1145.75</ele>
        <time>2013-12-12T15:25:52Z</time>
      </trkpt>
      <trkpt lat="48.33996" lon="2.15701">
        <ele>1164.6666666667</ele>
        <time>2013-12-12T15:25:55Z</time>
      </trkpt>
      <trkpt lat="48.33931" lon="2.15906">
        <ele>1182</ele>
        <time>2013-12-12T15:25:59Z</time>
      </trkpt>
      <trkpt lat="48.33873" lon="2.16115">
        <ele>1202.6666666667</ele>
        <time>2013-12-12T15:26:02Z</time>
      </trkpt>
      <trkpt lat="48.33833" lon="2.16301">
        <ele>1217</ele>
        <time>2013-12-12T15:26:05Z</time>
      </trkpt>
      <trkpt lat="48.33792" lon="2.16526">
        <ele>1230.25</ele>
        <time>2013-12-12T15:26:09Z</time>
      </trkpt>
      <trkpt lat="48.33749" lon="2.16749">
        <ele>1243</ele>
        <time>2013-12-12T15:26:12Z</time>
      </trkpt>
      <trkpt lat="48.33705" lon="2.16976">
        <ele>1254.25</ele>
        <time>2013-12-12T15:26:16Z</time>
      </trkpt>
      <trkpt lat="48.33655" lon="2.17244">
        <ele>1266.25</ele>
        <time>2013-12-12T15:26:20Z</time>
      </trkpt>
      <trkpt lat="48.33603" lon="2.17519">
        <ele>1276.75</ele>
        <time>2013-12-12T15:26:24Z</time>
      </trkpt>
      <trkpt lat="48.33553" lon="2.17755">
        <ele>1288</ele>
        <time>2013-12-12T15:26:27Z</time>
      </trkpt>
      <trkpt lat="48.33502" lon="2.17948">
        <ele>1302</ele>
        <time>2013-12-12T15:26:30Z</time>
      </trkpt>
      <trkpt lat="48.33446" lon="2.18131">
        <ele>1315</ele>
        <time>2013-12-12T15:26:33Z</time>
      </trkpt>
      <trkpt lat="48.33381" lon="2.18349">
        <ele>1331.5</ele>
        <time>2013-12-12T15:26:37Z</time>
      </trkpt>
      <trkpt lat="48.33316" lon="2.18563">
        <ele>1349</ele>
        <time>2013-12-12T15:26:40Z</time>
      </trkpt>
      <trkpt lat="48.33252" lon="2.18778">
        <ele>1365.75</ele>
        <time>2013-12-12T15:26:44Z</time>
      </trkpt>
      <trkpt lat="48.33169" lon="2.19034">
        <ele>1380</ele>
        <time>2013-12-12T15:26:48Z</time>
      </trkpt>
      <trkpt lat="48.33095" lon="2.19269">
        <ele>1388</ele>
        <time>2013-12-12T15:26:51Z</time>
      </trkpt>
      <trkpt lat="48.33034" lon="2.19478">
        <ele>1393.6666666667</ele>
        <time>2013-12-12T15:26:54Z</time>
      </trkpt>
      <trkpt lat="48.32968" lon="2.19726">
        <ele>1398.25</ele>
        <time>2013-12-12T15:26:58Z</time>
      </trkpt>
      <trkpt lat="48.32896" lon="2.20014">
        <ele>1403.5</ele>
        <time>2013-12-12T15:27:02Z</time>
      </trkpt>
      <trkpt lat="48.32821" lon="2.20306">
        <ele>1407.25</ele>
        <time>2013-12-12T15:27:06Z</time>
      </trkpt>
      <trkpt lat="48.32753" lon="2.20566">
        <ele>1409.6666666667</ele>
        <time>2013-12-12T15:27:09Z</time>
      </trkpt>
      <trkpt lat="48.32686" lon="2.2083">
        <ele>1411.5</ele>
        <time>2013-12-12T15:27:13Z</time>
      </trkpt>
      <trkpt lat="48.32622" lon="2.21095">
        <ele>1414</ele>
        <time>2013-12-12T15:27:16Z</time>
      </trkpt>
      <trkpt lat="48.32567" lon="2.21321">
        <ele>1415.6666666667</ele>
        <time>2013-12-12T15:27:19Z</time>
      </trkpt>
      <trkpt lat="48.32502" lon="2.21586">
        <ele>1418</ele>
        <time>2013-12-12T15:27:23Z</time>
      </trkpt>
      <trkpt lat="48.32431" lon="2.2185">
        <ele>1420.6666666667</ele>
        <time>2013-12-12T15:27:26Z</time>
      </trkpt>
      <trkpt lat="48.32353" lon="2.22109">
        <ele>1423</ele>
        <time>2013-12-12T15:27:30Z</time>
      </trkpt>
      <trkpt lat="48.32267" lon="2.22364">
        <ele>1425.3333333333</ele>
        <time>2013-12-12T15:27:33Z</time>
      </trkpt>
      <trkpt lat="48.32188" lon="2.22581">
        <ele>1428</ele>
        <time>2013-12-12T15:27:36Z</time>
      </trkpt>
      <trkpt lat="48.32092" lon="2.22831">
        <ele>1431.5</ele>
        <time>2013-12-12T15:27:40Z</time>
      </trkpt>
      <trkpt lat="48.31982" lon="2.23117">
        <ele>1435.5</ele>
        <time>2013-12-12T15:27:44Z</time>
      </trkpt>
      <trkpt lat="48.31874" lon="2.23406">
        <ele>1439.5</ele>
        <time>2013-12-12T15:27:48Z</time>
      </trkpt>
      <trkpt lat="48.31782" lon="2.23663">
        <ele>1443</ele>
        <time>2013-12-12T15:27:51Z</time>
      </trkpt>
      <trkpt lat="48.31691" lon="2.23921">
        <ele>1446</ele>
        <time>2013-12-12T15:27:55Z</time>
      </trkpt>
      <trkpt lat="48.316" lon="2.2418">
        <ele>1449</ele>
        <time>2013-12-12T15:27:58Z</time>
      </trkpt>
      <trkpt lat="48.31509" lon="2.2444">
        <ele>1451.25</ele>
        <time>2013-12-12T15:28:02Z</time>
      </trkpt>
      <trkpt lat="48.31403" lon="2.2474">
        <ele>1454</ele>
        <time>2013-12-12T15:28:06Z</time>
      </trkpt>
      <trkpt lat="48.31296" lon="2.2504">
        <ele>1456</ele>
        <time>2013-12-12T15:28:10Z</time>
      </trkpt>
      <trkpt lat="48.31201" lon="2.25303">
        <ele>1457.6666666667</ele>
        <time>2013-12-12T15:28:13Z</time>
      </trkpt>
      <trkpt lat="48.31104" lon="2.25567">
        <ele>1459.25</ele>
        <time>2013-12-12T15:28:17Z</time>
      </trkpt>
      <trkpt lat="48.30993" lon="2.25869">
        <ele>1461</ele>
        <time>2013-12-12T15:28:21Z</time>
      </trkpt>
      <trkpt lat="48.30897" lon="2.26134">
        <ele>1462.3333333333</ele>
        <time>2013-12-12T15:28:24Z</time>
      </trkpt>
      <trkpt lat="48.30815" lon="2.26364">
        <ele>1463.3333333333</ele>
        <time>2013-12-12T15:28:27Z</time>
      </trkpt>
      <trkpt lat="48.30719" lon="2.26632">
        <ele>1464.25</ele>
        <time>2013-12-12T15:28:31Z</time>
      </trkpt>
      <trkpt lat="48.30606" lon="2.26938">
        <ele>1465</ele>
        <time>2013-12-12T15:28:35Z</time>
      </trkpt>
      <trkpt lat="48.30489" lon="2.27242">
        <ele>1465.5</ele>
        <time>2013-12-12T15:28:39Z</time>
      </trkpt>
      <trkpt lat="48.3037" lon="2.27545">
        <ele>1466</ele>
        <time>2013-12-12T15:28:43Z</time>
      </trkpt>
      <trkpt lat="48.30259" lon="2.27806">
        <ele>1466</ele>
        <time>2013-12-12T15:28:46Z</time>
      </trkpt>
      <trkpt lat="48.30134" lon="2.28047">
        <ele>1466.25</ele>
        <time>2013-12-12T15:28:50Z</time>
      </trkpt>
      <trkpt lat="48.29965" lon="2.28278">
        <ele>1468.25</ele>
        <time>2013-12-12T15:28:54Z</time>
      </trkpt>
      <trkpt lat="48.29773" lon="2.28447">
        <ele>1470.5</ele>
        <time>2013-12-12T15:28:58Z</time>
      </trkpt>
      <trkpt lat="48.29593" lon="2.28547">
        <ele>1474</ele>
        <time>2013-12-12T15:29:01Z</time>
      </trkpt>
      <trkpt lat="48.29406" lon="2.28594">
        <ele>1476.25</ele>
        <time>2013-12-12T15:29:05Z</time>
      </trkpt>
      <trkpt lat="48.29188" lon="2.28617">
        <ele>1478.75</ele>
        <time>2013-12-12T15:29:09Z</time>
      </trkpt>
      <trkpt lat="48.28967" lon="2.28622">
        <ele>1478.5</ele>
        <time>2013-12-12T15:29:13Z</time>
      </trkpt>
      <trkpt lat="48.28774" lon="2.28617">
        <ele>1478</ele>
        <time>2013-12-12T15:29:16Z</time>
      </trkpt>
      <trkpt lat="48.28582" lon="2.28609">
        <ele>1477.5</ele>
        <time>2013-12-12T15:29:20Z</time>
      </trkpt>
      <trkpt lat="48.28363" lon="2.286">
        <ele>1477</ele>
        <time>2013-12-12T15:29:24Z</time>
      </trkpt>
      <trkpt lat="48.28143" lon="2.28591">
        <ele>1477</ele>
        <time>2013-12-12T15:29:28Z</time>
      </trkpt>
      <trkpt lat="48.2795" lon="2.28581">
        <ele>1476</ele>
        <time>2013-12-12T15:29:31Z</time>
      </trkpt>
      <trkpt lat="48.27784" lon="2.28571">
        <ele>1475.3333333333</ele>
        <time>2013-12-12T15:29:34Z</time>
      </trkpt>
      <trkpt lat="48.27618" lon="2.2856">
        <ele>1474.6666666667</ele>
        <time>2013-12-12T15:29:37Z</time>
      </trkpt>
      <trkpt lat="48.27423" lon="2.28548">
        <ele>1473.75</ele>
        <time>2013-12-12T15:29:41Z</time>
      </trkpt>
      <trkpt lat="48.272" lon="2.28533">
        <ele>1472</ele>
        <time>2013-12-12T15:29:45Z</time>
      </trkpt>
      <trkpt lat="48.26976" lon="2.28514">
        <ele>1470</ele>
        <time>2013-12-12T15:29:49Z</time>
      </trkpt>
      <trkpt lat="48.26751" lon="2.28491">
        <ele>1467.25</ele>
        <time>2013-12-12T15:29:53Z</time>
      </trkpt>
      <trkpt lat="48.26527" lon="2.28462">
        <ele>1465</ele>
        <time>2013-12-12T15:29:57Z</time>
      </trkpt>
      <trkpt lat="48.2633" lon="2.28436">
        <ele>1463.3333333333</ele>
        <time>2013-12-12T15:30:00Z</time>
      </trkpt>
      <trkpt lat="48.26134" lon="2.28412">
        <ele>1461.5</ele>
        <time>2013-12-12T15:30:04Z</time>
      </trkpt>
      <trkpt lat="48.25938" lon="2.28386">
        <ele>1459.6666666667</ele>
        <time>2013-12-12T15:30:07Z</time>
      </trkpt>
      <trkpt lat="48.25743" lon="2.28357">
        <ele>1458</ele>
        <time>2013-12-12T15:30:11Z</time>
      </trkpt>
      <trkpt lat="48.25547" lon="2.28329">
        <ele>1456.6666666667</ele>
        <time>2013-12-12T15:30:14Z</time>
      </trkpt>
      <trkpt lat="48.2538" lon="2.28304">
        <ele>1454.6666666667</ele>
        <time>2013-12-12T15:30:17Z</time>
      </trkpt>
      <trkpt lat="48.25184" lon="2.28277">
        <ele>1453</ele>
        <time>2013-12-12T15:30:21Z</time>
      </trkpt>
      <trkpt lat="48.24961" lon="2.28245">
        <ele>1451.25</ele>
        <time>2013-12-12T15:30:25Z</time>
      </trkpt>
      <trkpt lat="48.24766" lon="2.28215">
        <ele>1450</ele>
        <time>2013-12-12T15:30:28Z</time>
      </trkpt>
      <trkpt lat="48.24599" lon="2.28187">
        <ele>1450</ele>
        <time>2013-12-12T15:30:31Z</time>
      </trkpt>
      <trkpt lat="48.24405" lon="2.28148">
        <ele>1449.5</ele>
        <time>2013-12-12T15:30:35Z</time>
      </trkpt>
      <trkpt lat="48.24183" lon="2.28098">
        <ele>1448.25</ele>
        <time>2013-12-12T15:30:39Z</time>
      </trkpt>
      <trkpt lat="48.23988" lon="2.28052">
        <ele>1448</ele>
        <time>2013-12-12T15:30:42Z</time>
      </trkpt>
      <trkpt lat="48.23794" lon="2.28003">
        <ele>1447</ele>
        <time>2013-12-12T15:30:46Z</time>
      </trkpt>
      <trkpt lat="48.236" lon="2.27953">
        <ele>1446.3333333333</ele>
        <time>2013-12-12T15:30:49Z</time>
      </trkpt>
      <trkpt lat="48.23405" lon="2.27905">
        <ele>1444.5</ele>
        <time>2013-12-12T15:30:53Z</time>
      </trkpt>
      <trkpt lat="48.23183" lon="2.27846">
        <ele>1443.25</ele>
        <time>2013-12-12T15:30:57Z</time>
      </trkpt>
      <trkpt lat="48.22961" lon="2.27783">
        <ele>1441.75</ele>
        <time>2013-12-12T15:31:01Z</time>
      </trkpt>
      <trkpt lat="48.22738" lon="2.27719">
        <ele>1439</ele>
        <time>2013-12-12T15:31:05Z</time>
      </trkpt>
      <trkpt lat="48.22541" lon="2.27663">
        <ele>1436</ele>
        <time>2013-12-12T15:31:08Z</time>
      </trkpt>
      <trkpt lat="48.22344" lon="2.27604">
        <ele>1433.5</ele>
        <time>2013-12-12T15:31:12Z</time>
      </trkpt>
      <trkpt lat="48.2212" lon="2.27538">
        <ele>1431.25</ele>
        <time>2013-12-12T15:31:16Z</time>
      </trkpt>
      <trkpt lat="48.21924" lon="2.27481">
        <ele>1429.3333333333</ele>
        <time>2013-12-12T15:31:19Z</time>
      </trkpt>
      <trkpt lat="48.21727" lon="2.27427">
        <ele>1427</ele>
        <time>2013-12-12T15:31:23Z</time>
      </trkpt>
      <trkpt lat="48.2153" lon="2.27373">
        <ele>1424.6666666667</ele>
        <time>2013-12-12T15:31:26Z</time>
      </trkpt>
      <trkpt lat="48.21333" lon="2.27321">
        <ele>1422</ele>
        <time>2013-12-12T15:31:30Z</time>
      </trkpt>
      <trkpt lat="48.21137" lon="2.27271">
        <ele>1419.3333333333</ele>
        <time>2013-12-12T15:31:33Z</time>
      </trkpt>
      <trkpt lat="48.20946" lon="2.27223">
        <ele>1417.5</ele>
        <time>2013-12-12T15:31:37Z</time>
      </trkpt>
      <trkpt lat="48.20758" lon="2.27179">
        <ele>1416.3333333333</ele>
        <time>2013-12-12T15:31:40Z</time>
      </trkpt>
      <trkpt lat="48.20571" lon="2.27142">
        <ele>1414.5</ele>
        <time>2013-12-12T15:31:44Z</time>
      </trkpt>
      <trkpt lat="48.20357" lon="2.27102">
        <ele>1413.25</ele>
        <time>2013-12-12T15:31:48Z</time>
      </trkpt>
      <trkpt lat="48.20144" lon="2.27066">
        <ele>1411.75</ele>
        <time>2013-12-12T15:31:52Z</time>
      </trkpt>
      <trkpt lat="48.19958" lon="2.27031">
        <ele>1410.3333333333</ele>
        <time>2013-12-12T15:31:55Z</time>
      </trkpt>
      <trkpt lat="48.19773" lon="2.26992">
        <ele>1409.25</ele>
        <time>2013-12-12T15:31:59Z</time>
      </trkpt>
      <trkpt lat="48.19588" lon="2.26953">
        <ele>1408.3333333333</ele>
        <time>2013-12-12T15:32:02Z</time>
      </trkpt>
      <trkpt lat="48.1943" lon="2.26919">
        <ele>1406.6666666667</ele>
        <time>2013-12-12T15:32:05Z</time>
      </trkpt>
      <trkpt lat="48.19243" lon="2.2688">
        <ele>1405</ele>
        <time>2013-12-12T15:32:09Z</time>
      </trkpt>
      <trkpt lat="48.1903" lon="2.26836">
        <ele>1402.75</ele>
        <time>2013-12-12T15:32:13Z</time>
      </trkpt>
      <trkpt lat="48.18816" lon="2.26792">
        <ele>1400</ele>
        <time>2013-12-12T15:32:17Z</time>
      </trkpt>
      <trkpt lat="48.18602" lon="2.26748">
        <ele>1398</ele>
        <time>2013-12-12T15:32:21Z</time>
      </trkpt>
      <trkpt lat="48.18389" lon="2.26704">
        <ele>1396.25</ele>
        <time>2013-12-12T15:32:25Z</time>
      </trkpt>
      <trkpt lat="48.18202" lon="2.26668">
        <ele>1395</ele>
        <time>2013-12-12T15:32:28Z</time>
      </trkpt>
      <trkpt lat="48.18017" lon="2.26636">
        <ele>1393.5</ele>
        <time>2013-12-12T15:32:32Z</time>
      </trkpt>
      <trkpt lat="48.17832" lon="2.26605">
        <ele>1392</ele>
        <time>2013-12-12T15:32:35Z</time>
      </trkpt>
      <trkpt lat="48.17673" lon="2.2658">
        <ele>1390.3333333333</ele>
        <time>2013-12-12T15:32:38Z</time>
      </trkpt>
      <trkpt lat="48.17486" lon="2.26553">
        <ele>1388.5</ele>
        <time>2013-12-12T15:32:42Z</time>
      </trkpt>
      <trkpt lat="48.17273" lon="2.26524">
        <ele>1386.5</ele>
        <time>2013-12-12T15:32:46Z</time>
      </trkpt>
      <trkpt lat="48.17086" lon="2.26497">
        <ele>1384.6666666667</ele>
        <time>2013-12-12T15:32:49Z</time>
      </trkpt>
      <trkpt lat="48.169" lon="2.26465">
        <ele>1383.5</ele>
        <time>2013-12-12T15:32:53Z</time>
      </trkpt>
      <trkpt lat="48.16716" lon="2.26424">
        <ele>1382.6666666667</ele>
        <time>2013-12-12T15:32:56Z</time>
      </trkpt>
      <trkpt lat="48.16539" lon="2.26355">
        <ele>1382</ele>
        <time>2013-12-12T15:33:00Z</time>
      </trkpt>
      <trkpt lat="48.16377" lon="2.26243">
        <ele>1382</ele>
        <time>2013-12-12T15:33:03Z</time>
      </trkpt>
      <trkpt lat="48.16239" lon="2.26085">
        <ele>1383.25</ele>
        <time>2013-12-12T15:33:07Z</time>
      </trkpt>
      <trkpt lat="48.16115" lon="2.2586">
        <ele>1384.25</ele>
        <time>2013-12-12T15:33:11Z</time>
      </trkpt>
      <trkpt lat="48.16024" lon="2.25599">
        <ele>1385.5</ele>
        <time>2013-12-12T15:33:15Z</time>
      </trkpt>
      <trkpt lat="48.15954" lon="2.25352">
        <ele>1385</ele>
        <time>2013-12-12T15:33:18Z</time>
      </trkpt>
      <trkpt lat="48.15894" lon="2.25135">
        <ele>1384.6666666667</ele>
        <time>2013-12-12T15:33:21Z</time>
      </trkpt>
      <trkpt lat="48.15824" lon="2.24883">
        <ele>1382.25</ele>
        <time>2013-12-12T15:33:25Z</time>
      </trkpt>
      <trkpt lat="48.15744" lon="2.24596">
        <ele>1376.5</ele>
        <time>2013-12-12T15:33:29Z</time>
      </trkpt>
      <trkpt lat="48.15674" lon="2.24347">
        <ele>1368.3333333333</ele>
        <time>2013-12-12T15:33:32Z</time>
      </trkpt>
      <trkpt lat="48.15617" lon="2.2409">
        <ele>1362.25</ele>
        <time>2013-12-12T15:33:36Z</time>
      </trkpt>
      <trkpt lat="48.15563" lon="2.23831">
        <ele>1358</ele>
        <time>2013-12-12T15:33:39Z</time>
      </trkpt>
      <trkpt lat="48.15499" lon="2.23577">
        <ele>1354.5</ele>
        <time>2013-12-12T15:33:43Z</time>
      </trkpt>
      <trkpt lat="48.15398" lon="2.23312">
        <ele>1350.75</ele>
        <time>2013-12-12T15:33:47Z</time>
      </trkpt>
      <trkpt lat="48.15251" lon="2.23105">
        <ele>1348.25</ele>
        <time>2013-12-12T15:33:51Z</time>
      </trkpt>
      <trkpt lat="48.15064" lon="2.22984">
        <ele>1346</ele>
        <time>2013-12-12T15:33:55Z</time>
      </trkpt>
      <trkpt lat="48.14882" lon="2.22958">
        <ele>1343</ele>
        <time>2013-12-12T15:33:58Z</time>
      </trkpt>
      <trkpt lat="48.14719" lon="2.22995">
        <ele>1339.6666666667</ele>
        <time>2013-12-12T15:34:01Z</time>
      </trkpt>
      <trkpt lat="48.14539" lon="2.23096">
        <ele>1339</ele>
        <time>2013-12-12T15:34:05Z</time>
      </trkpt>
      <trkpt lat="48.14373" lon="2.23251">
        <ele>1338</ele>
        <time>2013-12-12T15:34:08Z</time>
      </trkpt>
      <trkpt lat="48.14237" lon="2.23405">
        <ele>1337</ele>
        <time>2013-12-12T15:34:11Z</time>
      </trkpt>
      <trkpt lat="48.1408" lon="2.23587">
        <ele>1336</ele>
        <time>2013-12-12T15:34:15Z</time>
      </trkpt>
      <trkpt lat="48.13924" lon="2.23767">
        <ele>1334.6666666667</ele>
        <time>2013-12-12T15:34:18Z</time>
      </trkpt>
      <trkpt lat="48.1377" lon="2.23947">
        <ele>1333.25</ele>
        <time>2013-12-12T15:34:22Z</time>
      </trkpt>
      <trkpt lat="48.13594" lon="2.24151">
        <ele>1332</ele>
        <time>2013-12-12T15:34:26Z</time>
      </trkpt>
      <trkpt lat="48.1344" lon="2.24329">
        <ele>1331</ele>
        <time>2013-12-12T15:34:29Z</time>
      </trkpt>
      <trkpt lat="48.13286" lon="2.24506">
        <ele>1330.25</ele>
        <time>2013-12-12T15:34:33Z</time>
      </trkpt>
      <trkpt lat="48.13132" lon="2.24682">
        <ele>1330</ele>
        <time>2013-12-12T15:34:36Z</time>
      </trkpt>
      <trkpt lat="48.12983" lon="2.24864">
        <ele>1329.25</ele>
        <time>2013-12-12T15:34:40Z</time>
      </trkpt>
      <trkpt lat="48.12826" lon="2.25091">
        <ele>1329</ele>
        <time>2013-12-12T15:34:44Z</time>
      </trkpt>
      <trkpt lat="48.12698" lon="2.25304">
        <ele>1329.6666666667</ele>
        <time>2013-12-12T15:34:47Z</time>
      </trkpt>
      <trkpt lat="48.12575" lon="2.25524">
        <ele>1330</ele>
        <time>2013-12-12T15:34:51Z</time>
      </trkpt>
      <trkpt lat="48.12454" lon="2.25749">
        <ele>1330</ele>
        <time>2013-12-12T15:34:54Z</time>
      </trkpt>
      <trkpt lat="48.12333" lon="2.25976">
        <ele>1330</ele>
        <time>2013-12-12T15:34:58Z</time>
      </trkpt>
      <trkpt lat="48.12212" lon="2.26205">
        <ele>1329.6666666667</ele>
        <time>2013-12-12T15:35:01Z</time>
      </trkpt>
      <trkpt lat="48.12091" lon="2.26435">
        <ele>1329</ele>
        <time>2013-12-12T15:35:05Z</time>
      </trkpt>
      <trkpt lat="48.11971" lon="2.26666">
        <ele>1328</ele>
        <time>2013-12-12T15:35:08Z</time>
      </trkpt>
      <trkpt lat="48.11869" lon="2.26865">
        <ele>1327.3333333333</ele>
        <time>2013-12-12T15:35:11Z</time>
      </trkpt>
      <trkpt lat="48.11767" lon="2.27063">
        <ele>1327</ele>
        <time>2013-12-12T15:35:14Z</time>
      </trkpt>
      <trkpt lat="48.11665" lon="2.27261">
        <ele>1327</ele>
        <time>2013-12-12T15:35:17Z</time>
      </trkpt>
      <trkpt lat="48.11547" lon="2.27491">
        <ele>1327</ele>
        <time>2013-12-12T15:35:21Z</time>
      </trkpt>
      <trkpt lat="48.11428" lon="2.27721">
        <ele>1326.3333333333</ele>
        <time>2013-12-12T15:35:24Z</time>
      </trkpt>
      <trkpt lat="48.11308" lon="2.27951">
        <ele>1326</ele>
        <time>2013-12-12T15:35:28Z</time>
      </trkpt>
      <trkpt lat="48.11168" lon="2.28209">
        <ele>1325</ele>
        <time>2013-12-12T15:35:32Z</time>
      </trkpt>
      <trkpt lat="48.11041" lon="2.2843">
        <ele>1324.3333333333</ele>
        <time>2013-12-12T15:35:35Z</time>
      </trkpt>
      <trkpt lat="48.1091" lon="2.28647">
        <ele>1323.5</ele>
        <time>2013-12-12T15:35:39Z</time>
      </trkpt>
      <trkpt lat="48.10777" lon="2.28859">
        <ele>1322.6666666667</ele>
        <time>2013-12-12T15:35:42Z</time>
      </trkpt>
      <trkpt lat="48.10662" lon="2.29036">
        <ele>1322</ele>
        <time>2013-12-12T15:35:45Z</time>
      </trkpt>
      <trkpt lat="48.10544" lon="2.29209">
        <ele>1322</ele>
        <time>2013-12-12T15:35:48Z</time>
      </trkpt>
      <trkpt lat="48.10408" lon="2.2941">
        <ele>1322</ele>
        <time>2013-12-12T15:35:52Z</time>
      </trkpt>
      <trkpt lat="48.10278" lon="2.29621">
        <ele>1322</ele>
        <time>2013-12-12T15:35:55Z</time>
      </trkpt>
      <trkpt lat="48.10174" lon="2.29812">
        <ele>1321.6666666667</ele>
        <time>2013-12-12T15:35:58Z</time>
      </trkpt>
      <trkpt lat="48.10063" lon="2.30048">
        <ele>1320.75</ele>
        <time>2013-12-12T15:36:02Z</time>
      </trkpt>
      <trkpt lat="48.09947" lon="2.30329">
        <ele>1319.5</ele>
        <time>2013-12-12T15:36:06Z</time>
      </trkpt>
      <trkpt lat="48.09839" lon="2.30618">
        <ele>1318.25</ele>
        <time>2013-12-12T15:36:10Z</time>
      </trkpt>
      <trkpt lat="48.0975" lon="2.30876">
        <ele>1317.3333333333</ele>
        <time>2013-12-12T15:36:13Z</time>
      </trkpt>
      <trkpt lat="48.09667" lon="2.31138">
        <ele>1316.5</ele>
        <time>2013-12-12T15:36:17Z</time>
      </trkpt>
      <trkpt lat="48.09575" lon="2.31438">
        <ele>1316</ele>
        <time>2013-12-12T15:36:21Z</time>
      </trkpt>
      <trkpt lat="48.09497" lon="2.31701">
        <ele>1316</ele>
        <time>2013-12-12T15:36:24Z</time>
      </trkpt>
      <trkpt lat="48.09419" lon="2.31962">
        <ele>1316.5</ele>
        <time>2013-12-12T15:36:28Z</time>
      </trkpt>
      <trkpt lat="48.09326" lon="2.32255">
        <ele>1317</ele>
        <time>2013-12-12T15:36:32Z</time>
      </trkpt>
      <trkpt lat="48.09245" lon="2.32511">
        <ele>1317.6666666667</ele>
        <time>2013-12-12T15:36:35Z</time>
      </trkpt>
      <trkpt lat="48.09183" lon="2.32733">
        <ele>1318.6666666667</ele>
        <time>2013-12-12T15:36:38Z</time>
      </trkpt>
      <trkpt lat="48.09116" lon="2.32994">
        <ele>1320.5</ele>
        <time>2013-12-12T15:36:42Z</time>
      </trkpt>
      <trkpt lat="48.09053" lon="2.33258">
        <ele>1321.6666666667</ele>
        <time>2013-12-12T15:36:45Z</time>
      </trkpt>
      <trkpt lat="48.08991" lon="2.33522">
        <ele>1322</ele>
        <time>2013-12-12T15:36:49Z</time>
      </trkpt>
      <trkpt lat="48.0892" lon="2.33827">
        <ele>1323</ele>
        <time>2013-12-12T15:36:53Z</time>
      </trkpt>
      <trkpt lat="48.08857" lon="2.34095">
        <ele>1323</ele>
        <time>2013-12-12T15:36:56Z</time>
      </trkpt>
      <trkpt lat="48.08791" lon="2.34359">
        <ele>1323.25</ele>
        <time>2013-12-12T15:37:00Z</time>
      </trkpt>
      <trkpt lat="48.08708" lon="2.34653">
        <ele>1324</ele>
        <time>2013-12-12T15:37:04Z</time>
      </trkpt>
      <trkpt lat="48.08617" lon="2.34941">
        <ele>1325</ele>
        <time>2013-12-12T15:37:08Z</time>
      </trkpt>
      <trkpt lat="48.08533" lon="2.35188">
        <ele>1326.3333333333</ele>
        <time>2013-12-12T15:37:11Z</time>
      </trkpt>
      <trkpt lat="48.08459" lon="2.35398">
        <ele>1327.3333333333</ele>
        <time>2013-12-12T15:37:14Z</time>
      </trkpt>
      <trkpt lat="48.08371" lon="2.35643">
        <ele>1328.25</ele>
        <time>2013-12-12T15:37:18Z</time>
      </trkpt>
      <trkpt lat="48.08277" lon="2.35884">
        <ele>1329</ele>
        <time>2013-12-12T15:37:21Z</time>
      </trkpt>
      <trkpt lat="48.0817" lon="2.3611">
        <ele>1330.25</ele>
        <time>2013-12-12T15:37:25Z</time>
      </trkpt>
      <trkpt lat="48.08047" lon="2.36317">
        <ele>1331</ele>
        <time>2013-12-12T15:37:28Z</time>
      </trkpt>
      <trkpt lat="48.07928" lon="2.36474">
        <ele>1332</ele>
        <time>2013-12-12T15:37:31Z</time>
      </trkpt>
      <trkpt lat="48.07778" lon="2.36639">
        <ele>1333</ele>
        <time>2013-12-12T15:37:35Z</time>
      </trkpt>
      <trkpt lat="48.07596" lon="2.36804">
        <ele>1333.75</ele>
        <time>2013-12-12T15:37:39Z</time>
      </trkpt>
      <trkpt lat="48.07429" lon="2.36929">
        <ele>1334</ele>
        <time>2013-12-12T15:37:42Z</time>
      </trkpt>
      <trkpt lat="48.07256" lon="2.3704">
        <ele>1335</ele>
        <time>2013-12-12T15:37:46Z</time>
      </trkpt>
      <trkpt lat="48.07081" lon="2.37138">
        <ele>1334</ele>
        <time>2013-12-12T15:37:50Z</time>
      </trkpt>
      <trkpt lat="48.06904" lon="2.37223">
        <ele>1334</ele>
        <time>2013-12-12T15:37:53Z</time>
      </trkpt>
      <trkpt lat="48.06725" lon="2.37301">
        <ele>1334</ele>
        <time>2013-12-12T15:37:57Z</time>
      </trkpt>
      <trkpt lat="48.06545" lon="2.37372">
        <ele>1334</ele>
        <time>2013-12-12T15:38:00Z</time>
      </trkpt>
      <trkpt lat="48.06363" lon="2.37435">
        <ele>1333.3333333333</ele>
        <time>2013-12-12T15:38:04Z</time>
      </trkpt>
      <trkpt lat="48.06179" lon="2.37492">
        <ele>1333</ele>
        <time>2013-12-12T15:38:07Z</time>
      </trkpt>
      <trkpt lat="48.05994" lon="2.37542">
        <ele>1332</ele>
        <time>2013-12-12T15:38:10Z</time>
      </trkpt>
      <trkpt lat="48.05807" lon="2.37586">
        <ele>1331.5</ele>
        <time>2013-12-12T15:38:14Z</time>
      </trkpt>
      <trkpt lat="48.05621" lon="2.37622">
        <ele>1331</ele>
        <time>2013-12-12T15:38:17Z</time>
      </trkpt>
      <trkpt lat="48.0546" lon="2.37648">
        <ele>1330</ele>
        <time>2013-12-12T15:38:21Z</time>
      </trkpt>
      <trkpt lat="48.05273" lon="2.37671">
        <ele>1329.5</ele>
        <time>2013-12-12T15:38:24Z</time>
      </trkpt>
      <trkpt lat="48.05058" lon="2.37692">
        <ele>1329.5</ele>
        <time>2013-12-12T15:38:28Z</time>
      </trkpt>
      <trkpt lat="48.04871" lon="2.37703">
        <ele>1328.6666666667</ele>
        <time>2013-12-12T15:38:31Z</time>
      </trkpt>
      <trkpt lat="48.04685" lon="2.37703">
        <ele>1327.5</ele>
        <time>2013-12-12T15:38:35Z</time>
      </trkpt>
      <trkpt lat="48.045" lon="2.37699">
        <ele>1327</ele>
        <time>2013-12-12T15:38:39Z</time>
      </trkpt>
      <trkpt lat="48.04318" lon="2.37692">
        <ele>1326.5</ele>
        <time>2013-12-12T15:38:42Z</time>
      </trkpt>
      <trkpt lat="48.04135" lon="2.37679">
        <ele>1326</ele>
        <time>2013-12-12T15:38:45Z</time>
      </trkpt>
      <trkpt lat="48.03952" lon="2.37661">
        <ele>1325.5</ele>
        <time>2013-12-12T15:38:49Z</time>
      </trkpt>
      <trkpt lat="48.03769" lon="2.37635">
        <ele>1324.3333333333</ele>
        <time>2013-12-12T15:38:52Z</time>
      </trkpt>
      <trkpt lat="48.03612" lon="2.37605">
        <ele>1323.6666666667</ele>
        <time>2013-12-12T15:38:55Z</time>
      </trkpt>
      <trkpt lat="48.03429" lon="2.37561">
        <ele>1323</ele>
        <time>2013-12-12T15:38:59Z</time>
      </trkpt>
      <trkpt lat="48.0322" lon="2.37499">
        <ele>1321.5</ele>
        <time>2013-12-12T15:39:03Z</time>
      </trkpt>
      <trkpt lat="48.03039" lon="2.37437">
        <ele>1320.3333333333</ele>
        <time>2013-12-12T15:39:06Z</time>
      </trkpt>
      <trkpt lat="48.02885" lon="2.37381">
        <ele>1319.3333333333</ele>
        <time>2013-12-12T15:39:09Z</time>
      </trkpt>
      <trkpt lat="48.02731" lon="2.3732">
        <ele>1318</ele>
        <time>2013-12-12T15:39:13Z</time>
      </trkpt>
      <trkpt lat="48.02553" lon="2.37241">
        <ele>1316.75</ele>
        <time>2013-12-12T15:39:17Z</time>
      </trkpt>
      <trkpt lat="48.0235" lon="2.37143">
        <ele>1315</ele>
        <time>2013-12-12T15:39:21Z</time>
      </trkpt>
      <trkpt lat="48.02149" lon="2.3704">
        <ele>1313</ele>
        <time>2013-12-12T15:39:24Z</time>
      </trkpt>
      <trkpt lat="48.01974" lon="2.3695">
        <ele>1310.6666666667</ele>
        <time>2013-12-12T15:39:27Z</time>
      </trkpt>
      <trkpt lat="48.01797" lon="2.36863">
        <ele>1308.25</ele>
        <time>2013-12-12T15:39:31Z</time>
      </trkpt>
      <trkpt lat="48.0162" lon="2.36777">
        <ele>1305.3333333333</ele>
        <time>2013-12-12T15:39:34Z</time>
      </trkpt>
      <trkpt lat="48.01441" lon="2.36693">
        <ele>1303.75</ele>
        <time>2013-12-12T15:39:38Z</time>
      </trkpt>
      <trkpt lat="48.01264" lon="2.36605">
        <ele>1301.6666666667</ele>
        <time>2013-12-12T15:39:41Z</time>
      </trkpt>
      <trkpt lat="48.01114" lon="2.36524">
        <ele>1301</ele>
        <time>2013-12-12T15:39:44Z</time>
      </trkpt>
      <trkpt lat="48.00942" lon="2.36425">
        <ele>1300.5</ele>
        <time>2013-12-12T15:39:48Z</time>
      </trkpt>
      <trkpt lat="48.00747" lon="2.36311">
        <ele>1299.25</ele>
        <time>2013-12-12T15:39:52Z</time>
      </trkpt>
      <trkpt lat="48.00551" lon="2.36197">
        <ele>1298.25</ele>
        <time>2013-12-12T15:39:56Z</time>
      </trkpt>
      <trkpt lat="48.00355" lon="2.36088">
        <ele>1298</ele>
        <time>2013-12-12T15:39:59Z</time>
      </trkpt>
      <trkpt lat="48.00158" lon="2.35981">
        <ele>1298</ele>
        <time>2013-12-12T15:40:03Z</time>
      </trkpt>
      <trkpt lat="47.99986" lon="2.3589">
        <ele>1298</ele>
        <time>2013-12-12T15:40:07Z</time>
      </trkpt>
      <trkpt lat="47.99817" lon="2.35798">
        <ele>1298</ele>
        <time>2013-12-12T15:40:10Z</time>
      </trkpt>
      <trkpt lat="47.99649" lon="2.35703">
        <ele>1297.3333333333</ele>
        <time>2013-12-12T15:40:13Z</time>
      </trkpt>
      <trkpt lat="47.99504" lon="2.35618">
        <ele>1296.6666666667</ele>
        <time>2013-12-12T15:40:17Z</time>
      </trkpt>
      <trkpt lat="47.9936" lon="2.35529">
        <ele>1295.3333333333</ele>
        <time>2013-12-12T15:40:20Z</time>
      </trkpt>
      <trkpt lat="47.99193" lon="2.35421">
        <ele>1295</ele>
        <time>2013-12-12T15:40:23Z</time>
      </trkpt>
      <trkpt lat="47.99026" lon="2.35312">
        <ele>1294</ele>
        <time>2013-12-12T15:40:26Z</time>
      </trkpt>
      <trkpt lat="47.98883" lon="2.35217">
        <ele>1294</ele>
        <time>2013-12-12T15:40:29Z</time>
      </trkpt>
      <trkpt lat="47.98717" lon="2.35107">
        <ele>1293.25</ele>
        <time>2013-12-12T15:40:33Z</time>
      </trkpt>
      <trkpt lat="47.98551" lon="2.34997">
        <ele>1293</ele>
        <time>2013-12-12T15:40:36Z</time>
      </trkpt>
      <trkpt lat="47.98384" lon="2.34888">
        <ele>1292</ele>
        <time>2013-12-12T15:40:40Z</time>
      </trkpt>
      <trkpt lat="47.98218" lon="2.34778">
        <ele>1292</ele>
        <time>2013-12-12T15:40:44Z</time>
      </trkpt>
      <trkpt lat="47.98053" lon="2.34666">
        <ele>1292</ele>
        <time>2013-12-12T15:40:48Z</time>
      </trkpt>
      <trkpt lat="47.97864" lon="2.34537">
        <ele>1291.25</ele>
        <time>2013-12-12T15:40:51Z</time>
      </trkpt>
      <trkpt lat="47.97672" lon="2.34408">
        <ele>1291</ele>
        <time>2013-12-12T15:40:56Z</time>
      </trkpt>
      <trkpt lat="47.97481" lon="2.34276">
        <ele>1291</ele>
        <time>2013-12-12T15:40:59Z</time>
      </trkpt>
      <trkpt lat="47.97315" lon="2.34157">
        <ele>1290.3333333333</ele>
        <time>2013-12-12T15:41:03Z</time>
      </trkpt>
      <trkpt lat="47.9715" lon="2.34038">
        <ele>1290</ele>
        <time>2013-12-12T15:41:06Z</time>
      </trkpt>
      <trkpt lat="47.96985" lon="2.33923">
        <ele>1288.6666666667</ele>
        <time>2013-12-12T15:41:10Z</time>
      </trkpt>
      <trkpt lat="47.96819" lon="2.33811">
        <ele>1286.5</ele>
        <time>2013-12-12T15:41:13Z</time>
      </trkpt>
      <trkpt lat="47.96629" lon="2.33685">
        <ele>1284.5</ele>
        <time>2013-12-12T15:41:17Z</time>
      </trkpt>
      <trkpt lat="47.96463" lon="2.33575">
        <ele>1284</ele>
        <time>2013-12-12T15:41:21Z</time>
      </trkpt>
      <trkpt lat="47.96296" lon="2.33466">
        <ele>1283.5</ele>
        <time>2013-12-12T15:41:24Z</time>
      </trkpt>
      <trkpt lat="47.96131" lon="2.33353">
        <ele>1283</ele>
        <time>2013-12-12T15:41:27Z</time>
      </trkpt>
      <trkpt lat="47.95965" lon="2.33238">
        <ele>1282</ele>
        <time>2013-12-12T15:41:32Z</time>
      </trkpt>
      <trkpt lat="47.95753" lon="2.33093">
        <ele>1282</ele>
        <time>2013-12-12T15:41:35Z</time>
      </trkpt>
      <trkpt lat="47.95563" lon="2.32968">
        <ele>1282</ele>
        <time>2013-12-12T15:41:38Z</time>
      </trkpt>
      <trkpt lat="47.95395" lon="2.32865">
        <ele>1281.75</ele>
        <time>2013-12-12T15:41:42Z</time>
      </trkpt>
      <trkpt lat="47.95224" lon="2.32764">
        <ele>1281</ele>
        <time>2013-12-12T15:41:45Z</time>
      </trkpt>
      <trkpt lat="47.95053" lon="2.32664">
        <ele>1279.75</ele>
        <time>2013-12-12T15:41:49Z</time>
      </trkpt>
      <trkpt lat="47.94881" lon="2.32566">
        <ele>1278.6666666667</ele>
        <time>2013-12-12T15:41:52Z</time>
      </trkpt>
      <trkpt lat="47.94709" lon="2.32467">
        <ele>1277.25</ele>
        <time>2013-12-12T15:41:56Z</time>
      </trkpt>
      <trkpt lat="47.94511" lon="2.32354">
        <ele>1275.5</ele>
        <time>2013-12-12T15:42:00Z</time>
      </trkpt>
      <trkpt lat="47.94337" lon="2.32255">
        <ele>1273.6666666667</ele>
        <time>2013-12-12T15:42:03Z</time>
      </trkpt>
      <trkpt lat="47.94164" lon="2.32154">
        <ele>1272.5</ele>
        <time>2013-12-12T15:42:07Z</time>
      </trkpt>
      <trkpt lat="47.93966" lon="2.32036">
        <ele>1270.75</ele>
        <time>2013-12-12T15:42:11Z</time>
      </trkpt>
      <trkpt lat="47.93794" lon="2.31933">
        <ele>1269.6666666667</ele>
        <time>2013-12-12T15:42:14Z</time>
      </trkpt>
      <trkpt lat="47.93622" lon="2.3183">
        <ele>1268.5</ele>
        <time>2013-12-12T15:42:18Z</time>
      </trkpt>
      <trkpt lat="47.9345" lon="2.3173">
        <ele>1267.6666666667</ele>
        <time>2013-12-12T15:42:21Z</time>
      </trkpt>
      <trkpt lat="47.93301" lon="2.3165">
        <ele>1267</ele>
        <time>2013-12-12T15:42:24Z</time>
      </trkpt>
      <trkpt lat="47.93125" lon="2.31561">
        <ele>1266</ele>
        <time>2013-12-12T15:42:28Z</time>
      </trkpt>
      <trkpt lat="47.92948" lon="2.31473">
        <ele>1265</ele>
        <time>2013-12-12T15:42:31Z</time>
      </trkpt>
      <trkpt lat="47.92796" lon="2.31396">
        <ele>1264.3333333333</ele>
        <time>2013-12-12T15:42:34Z</time>
      </trkpt>
      <trkpt lat="47.9262" lon="2.31306">
        <ele>1263.25</ele>
        <time>2013-12-12T15:42:38Z</time>
      </trkpt>
      <trkpt lat="47.92419" lon="2.31203">
        <ele>1261.75</ele>
        <time>2013-12-12T15:42:42Z</time>
      </trkpt>
      <trkpt lat="47.92243" lon="2.31112">
        <ele>1260.3333333333</ele>
        <time>2013-12-12T15:42:45Z</time>
      </trkpt>
      <trkpt lat="47.92066" lon="2.31022">
        <ele>1258.5</ele>
        <time>2013-12-12T15:42:49Z</time>
      </trkpt>
      <trkpt lat="47.91865" lon="2.30914">
        <ele>1256.75</ele>
        <time>2013-12-12T15:42:53Z</time>
      </trkpt>
      <trkpt lat="47.91669" lon="2.30785">
        <ele>1255</ele>
        <time>2013-12-12T15:42:57Z</time>
      </trkpt>
      <trkpt lat="47.91474" lon="2.30641">
        <ele>1252.5</ele>
        <time>2013-12-12T15:43:01Z</time>
      </trkpt>
      <trkpt lat="47.91278" lon="2.30494">
        <ele>1248.5</ele>
        <time>2013-12-12T15:43:05Z</time>
      </trkpt>
      <trkpt lat="47.91106" lon="2.30367">
        <ele>1245</ele>
        <time>2013-12-12T15:43:08Z</time>
      </trkpt>
      <trkpt lat="47.90935" lon="2.30242">
        <ele>1240.25</ele>
        <time>2013-12-12T15:43:12Z</time>
      </trkpt>
      <trkpt lat="47.90738" lon="2.30101">
        <ele>1235.5</ele>
        <time>2013-12-12T15:43:16Z</time>
      </trkpt>
      <trkpt lat="47.90569" lon="2.2997">
        <ele>1232.3333333333</ele>
        <time>2013-12-12T15:43:19Z</time>
      </trkpt>
      <trkpt lat="47.90407" lon="2.29821">
        <ele>1229.5</ele>
        <time>2013-12-12T15:43:23Z</time>
      </trkpt>
      <trkpt lat="47.90225" lon="2.29647">
        <ele>1226.5</ele>
        <time>2013-12-12T15:43:27Z</time>
      </trkpt>
      <trkpt lat="47.9004" lon="2.29475">
        <ele>1223.75</ele>
        <time>2013-12-12T15:43:31Z</time>
      </trkpt>
      <trkpt lat="47.89902" lon="2.2935">
        <ele>1221.5</ele>
        <time>2013-12-12T15:43:35Z</time>
      </trkpt>
      <trkpt lat="47.89763" lon="2.29227">
        <ele>1220</ele>
        <time>2013-12-12T15:43:39Z</time>
      </trkpt>
      <trkpt lat="47.89602" lon="2.29084">
        <ele>1218.3333333333</ele>
        <time>2013-12-12T15:43:42Z</time>
      </trkpt>
      <trkpt lat="47.89443" lon="2.2894">
        <ele>1216.75</ele>
        <time>2013-12-12T15:43:46Z</time>
      </trkpt>
      <trkpt lat="47.89284" lon="2.28797">
        <ele>1215.6666666667</ele>
        <time>2013-12-12T15:43:49Z</time>
      </trkpt>
      <trkpt lat="47.89147" lon="2.28678">
        <ele>1214.6666666667</ele>
        <time>2013-12-12T15:43:52Z</time>
      </trkpt>
      <trkpt lat="47.88987" lon="2.28541">
        <ele>1213.5</ele>
        <time>2013-12-12T15:43:56Z</time>
      </trkpt>
      <trkpt lat="47.88809" lon="2.28373">
        <ele>1212.25</ele>
        <time>2013-12-12T15:44:00Z</time>
      </trkpt>
      <trkpt lat="47.88631" lon="2.28198">
        <ele>1210.5</ele>
        <time>2013-12-12T15:44:04Z</time>
      </trkpt>
      <trkpt lat="47.88452" lon="2.28027">
        <ele>1208.5</ele>
        <time>2013-12-12T15:44:08Z</time>
      </trkpt>
      <trkpt lat="47.88295" lon="2.27882">
        <ele>1206.6666666667</ele>
        <time>2013-12-12T15:44:11Z</time>
      </trkpt>
      <trkpt lat="47.88139" lon="2.27737">
        <ele>1205.25</ele>
        <time>2013-12-12T15:44:15Z</time>
      </trkpt>
      <trkpt lat="47.87984" lon="2.27588">
        <ele>1203.6666666667</ele>
        <time>2013-12-12T15:44:18Z</time>
      </trkpt>
      <trkpt lat="47.87853" lon="2.27458">
        <ele>1203</ele>
        <time>2013-12-12T15:44:21Z</time>
      </trkpt>
      <trkpt lat="47.877" lon="2.27307">
        <ele>1203</ele>
        <time>2013-12-12T15:44:25Z</time>
      </trkpt>
      <trkpt lat="47.87522" lon="2.27138">
        <ele>1201.5</ele>
        <time>2013-12-12T15:44:29Z</time>
      </trkpt>
      <trkpt lat="47.87347" lon="2.26963">
        <ele>1199.5</ele>
        <time>2013-12-12T15:44:33Z</time>
      </trkpt>
      <trkpt lat="47.87183" lon="2.26764">
        <ele>1198</ele>
        <time>2013-12-12T15:44:37Z</time>
      </trkpt>
      <trkpt lat="47.87044" lon="2.26577">
        <ele>1196.3333333333</ele>
        <time>2013-12-12T15:44:40Z</time>
      </trkpt>
      <trkpt lat="47.86928" lon="2.26413">
        <ele>1194.6666666667</ele>
        <time>2013-12-12T15:44:43Z</time>
      </trkpt>
      <trkpt lat="47.86799" lon="2.26211">
        <ele>1192.5</ele>
        <time>2013-12-12T15:44:47Z</time>
      </trkpt>
      <trkpt lat="47.86676" lon="2.26002">
        <ele>1191.3333333333</ele>
        <time>2013-12-12T15:44:50Z</time>
      </trkpt>
      <trkpt lat="47.86555" lon="2.25794">
        <ele>1189.5</ele>
        <time>2013-12-12T15:44:54Z</time>
      </trkpt>
      <trkpt lat="47.86435" lon="2.25588">
        <ele>1187.6666666667</ele>
        <time>2013-12-12T15:44:57Z</time>
      </trkpt>
      <trkpt lat="47.86316" lon="2.25379">
        <ele>1186.5</ele>
        <time>2013-12-12T15:45:01Z</time>
      </trkpt>
      <trkpt lat="47.86184" lon="2.25134">
        <ele>1186</ele>
        <time>2013-12-12T15:45:05Z</time>
      </trkpt>
      <trkpt lat="47.86055" lon="2.24884">
        <ele>1185</ele>
        <time>2013-12-12T15:45:09Z</time>
      </trkpt>
      <trkpt lat="47.85931" lon="2.24629">
        <ele>1183.5</ele>
        <time>2013-12-12T15:45:13Z</time>
      </trkpt>
      <trkpt lat="47.85812" lon="2.24368">
        <ele>1182.5</ele>
        <time>2013-12-12T15:45:17Z</time>
      </trkpt>
      <trkpt lat="47.85711" lon="2.24095">
        <ele>1181.5</ele>
        <time>2013-12-12T15:45:21Z</time>
      </trkpt>
      <trkpt lat="47.85643" lon="2.23801">
        <ele>1181.75</ele>
        <time>2013-12-12T15:45:25Z</time>
      </trkpt>
      <trkpt lat="47.85613" lon="2.23535">
        <ele>1182.3333333333</ele>
        <time>2013-12-12T15:45:28Z</time>
      </trkpt>
      <trkpt lat="47.85606" lon="2.23302">
        <ele>1183</ele>
        <time>2013-12-12T15:45:31Z</time>
      </trkpt>
      <trkpt lat="47.85622" lon="2.2303">
        <ele>1183</ele>
        <time>2013-12-12T15:45:35Z</time>
      </trkpt>
      <trkpt lat="47.85676" lon="2.22726">
        <ele>1183.25</ele>
        <time>2013-12-12T15:45:39Z</time>
      </trkpt>
      <trkpt lat="47.85753" lon="2.22472">
        <ele>1184</ele>
        <time>2013-12-12T15:45:42Z</time>
      </trkpt>
      <trkpt lat="47.85858" lon="2.22238">
        <ele>1183.25</ele>
        <time>2013-12-12T15:45:46Z</time>
      </trkpt>
      <trkpt lat="47.85983" lon="2.22028">
        <ele>1183</ele>
        <time>2013-12-12T15:45:49Z</time>
      </trkpt>
      <trkpt lat="47.86103" lon="2.21871">
        <ele>1184.3333333333</ele>
        <time>2013-12-12T15:45:52Z</time>
      </trkpt>
      <trkpt lat="47.86227" lon="2.21725">
        <ele>1185.6666666667</ele>
        <time>2013-12-12T15:45:55Z</time>
      </trkpt>
      <trkpt lat="47.86378" lon="2.21574">
        <ele>1188</ele>
        <time>2013-12-12T15:45:59Z</time>
      </trkpt>
      <trkpt lat="47.8656" lon="2.21422">
        <ele>1191</ele>
        <time>2013-12-12T15:46:03Z</time>
      </trkpt>
      <trkpt lat="47.86725" lon="2.21301">
        <ele>1193.6666666667</ele>
        <time>2013-12-12T15:46:06Z</time>
      </trkpt>
      <trkpt lat="47.86894" lon="2.21185">
        <ele>1195.5</ele>
        <time>2013-12-12T15:46:10Z</time>
      </trkpt>
      <trkpt lat="47.87065" lon="2.21069">
        <ele>1196</ele>
        <time>2013-12-12T15:46:13Z</time>
      </trkpt>
      <trkpt lat="47.87215" lon="2.20969">
        <ele>1196</ele>
        <time>2013-12-12T15:46:16Z</time>
      </trkpt>
      <trkpt lat="47.87392" lon="2.20851">
        <ele>1195.5</ele>
        <time>2013-12-12T15:46:20Z</time>
      </trkpt>
      <trkpt lat="47.8757" lon="2.20733">
        <ele>1194.6666666667</ele>
        <time>2013-12-12T15:46:23Z</time>
      </trkpt>
      <trkpt lat="47.8775" lon="2.20617">
        <ele>1193.5</ele>
        <time>2013-12-12T15:46:27Z</time>
      </trkpt>
      <trkpt lat="47.87959" lon="2.20488">
        <ele>1191.5</ele>
        <time>2013-12-12T15:46:31Z</time>
      </trkpt>
      <trkpt lat="47.88141" lon="2.20376">
        <ele>1189.6666666667</ele>
        <time>2013-12-12T15:46:34Z</time>
      </trkpt>
      <trkpt lat="47.88321" lon="2.20257">
        <ele>1187.75</ele>
        <time>2013-12-12T15:46:38Z</time>
      </trkpt>
      <trkpt lat="47.8852" lon="2.20106">
        <ele>1185.5</ele>
        <time>2013-12-12T15:46:42Z</time>
      </trkpt>
      <trkpt lat="47.88691" lon="2.19962">
        <ele>1184.6666666667</ele>
        <time>2013-12-12T15:46:45Z</time>
      </trkpt>
      <trkpt lat="47.88837" lon="2.19835">
        <ele>1184</ele>
        <time>2013-12-12T15:46:48Z</time>
      </trkpt>
      <trkpt lat="47.89008" lon="2.19693">
        <ele>1183</ele>
        <time>2013-12-12T15:46:52Z</time>
      </trkpt>
      <trkpt lat="47.89188" lon="2.19583">
        <ele>1182</ele>
        <time>2013-12-12T15:46:55Z</time>
      </trkpt>
      <trkpt lat="47.89377" lon="2.19534">
        <ele>1181</ele>
        <time>2013-12-12T15:46:59Z</time>
      </trkpt>
      <trkpt lat="47.89594" lon="2.19534">
        <ele>1181.5</ele>
        <time>2013-12-12T15:47:03Z</time>
      </trkpt>
      <trkpt lat="47.89807" lon="2.19571">
        <ele>1183.75</ele>
        <time>2013-12-12T15:47:07Z</time>
      </trkpt>
      <trkpt lat="47.90017" lon="2.19625">
        <ele>1186.25</ele>
        <time>2013-12-12T15:47:11Z</time>
      </trkpt>
      <trkpt lat="47.90203" lon="2.19679">
        <ele>1187.6666666667</ele>
        <time>2013-12-12T15:47:14Z</time>
      </trkpt>
      <trkpt lat="47.90362" lon="2.19728">
        <ele>1188</ele>
        <time>2013-12-12T15:47:17Z</time>
      </trkpt>
      <trkpt lat="47.90522" lon="2.19786">
        <ele>1189</ele>
        <time>2013-12-12T15:47:20Z</time>
      </trkpt>
      <trkpt lat="47.90703" lon="2.1988">
        <ele>1188</ele>
        <time>2013-12-12T15:47:24Z</time>
      </trkpt>
      <trkpt lat="47.90877" lon="2.20007">
        <ele>1187</ele>
        <time>2013-12-12T15:47:27Z</time>
      </trkpt>
      <trkpt lat="47.9102" lon="2.20132">
        <ele>1186</ele>
        <time>2013-12-12T15:47:30Z</time>
      </trkpt>
      <trkpt lat="47.91158" lon="2.20266">
        <ele>1186</ele>
        <time>2013-12-12T15:47:33Z</time>
      </trkpt>
      <trkpt lat="47.91316" lon="2.20421">
        <ele>1186.25</ele>
        <time>2013-12-12T15:47:37Z</time>
      </trkpt>
      <trkpt lat="47.91499" lon="2.20588">
        <ele>1188</ele>
        <time>2013-12-12T15:47:41Z</time>
      </trkpt>
      <trkpt lat="47.91662" lon="2.20721">
        <ele>1189.3333333333</ele>
        <time>2013-12-12T15:47:44Z</time>
      </trkpt>
      <trkpt lat="47.91832" lon="2.20836">
        <ele>1190.75</ele>
        <time>2013-12-12T15:47:48Z</time>
      </trkpt>
      <trkpt lat="47.92038" lon="2.2094">
        <ele>1191</ele>
        <time>2013-12-12T15:47:52Z</time>
      </trkpt>
      <trkpt lat="47.92227" lon="2.20997">
        <ele>1190.6666666667</ele>
        <time>2013-12-12T15:47:55Z</time>
      </trkpt>
      <trkpt lat="47.92423" lon="2.21013">
        <ele>1189.75</ele>
        <time>2013-12-12T15:47:59Z</time>
      </trkpt>
      <trkpt lat="47.92621" lon="2.20997">
        <ele>1189</ele>
        <time>2013-12-12T15:48:02Z</time>
      </trkpt>
      <trkpt lat="47.92815" lon="2.2096">
        <ele>1189.75</ele>
        <time>2013-12-12T15:48:06Z</time>
      </trkpt>
      <trkpt lat="47.93003" lon="2.2091">
        <ele>1190.6666666667</ele>
        <time>2013-12-12T15:48:09Z</time>
      </trkpt>
      <trkpt lat="47.93187" lon="2.20851">
        <ele>1190.25</ele>
        <time>2013-12-12T15:48:13Z</time>
      </trkpt>
      <trkpt lat="47.93392" lon="2.20775">
        <ele>1191.5</ele>
        <time>2013-12-12T15:48:17Z</time>
      </trkpt>
      <trkpt lat="47.93595" lon="2.2069">
        <ele>1192.25</ele>
        <time>2013-12-12T15:48:21Z</time>
      </trkpt>
      <trkpt lat="47.93797" lon="2.20592">
        <ele>1193</ele>
        <time>2013-12-12T15:48:25Z</time>
      </trkpt>
      <trkpt lat="47.93974" lon="2.20498">
        <ele>1193</ele>
        <time>2013-12-12T15:48:28Z</time>
      </trkpt>
      <trkpt lat="47.9415" lon="2.20396">
        <ele>1193</ele>
        <time>2013-12-12T15:48:32Z</time>
      </trkpt>
      <trkpt lat="47.9435" lon="2.20273">
        <ele>1193.5</ele>
        <time>2013-12-12T15:48:36Z</time>
      </trkpt>
      <trkpt lat="47.94552" lon="2.20161">
        <ele>1194</ele>
        <time>2013-12-12T15:48:40Z</time>
      </trkpt>
      <trkpt lat="47.94732" lon="2.20076">
        <ele>1194</ele>
        <time>2013-12-12T15:48:43Z</time>
      </trkpt>
      <trkpt lat="47.94913" lon="2.20007">
        <ele>1194.75</ele>
        <time>2013-12-12T15:48:47Z</time>
      </trkpt>
      <trkpt lat="47.95124" lon="2.19947">
        <ele>1195</ele>
        <time>2013-12-12T15:48:51Z</time>
      </trkpt>
      <trkpt lat="47.95311" lon="2.19905">
        <ele>1195</ele>
        <time>2013-12-12T15:48:54Z</time>
      </trkpt>
      <trkpt lat="47.95498" lon="2.19865">
        <ele>1195</ele>
        <time>2013-12-12T15:48:58Z</time>
      </trkpt>
      <trkpt lat="47.95714" lon="2.19821">
        <ele>1195</ele>
        <time>2013-12-12T15:49:02Z</time>
      </trkpt>
      <trkpt lat="47.95903" lon="2.19781">
        <ele>1195</ele>
        <time>2013-12-12T15:49:05Z</time>
      </trkpt>
      <trkpt lat="47.96065" lon="2.19749">
        <ele>1195</ele>
        <time>2013-12-12T15:49:08Z</time>
      </trkpt>
      <trkpt lat="47.96255" lon="2.19715">
        <ele>1195</ele>
        <time>2013-12-12T15:49:12Z</time>
      </trkpt>
      <trkpt lat="47.96444" lon="2.19684">
        <ele>1195</ele>
        <time>2013-12-12T15:49:15Z</time>
      </trkpt>
      <trkpt lat="47.96607" lon="2.19657">
        <ele>1195</ele>
        <time>2013-12-12T15:49:18Z</time>
      </trkpt>
      <trkpt lat="47.96796" lon="2.19626">
        <ele>1195</ele>
        <time>2013-12-12T15:49:22Z</time>
      </trkpt>
      <trkpt lat="47.97012" lon="2.19592">
        <ele>1195</ele>
        <time>2013-12-12T15:49:26Z</time>
      </trkpt>
      <trkpt lat="47.97203" lon="2.19566">
        <ele>1195.3333333333</ele>
        <time>2013-12-12T15:49:29Z</time>
      </trkpt>
      <trkpt lat="47.97393" lon="2.19556">
        <ele>1196.25</ele>
        <time>2013-12-12T15:49:33Z</time>
      </trkpt>
      <trkpt lat="47.97607" lon="2.19591">
        <ele>1197.75</ele>
        <time>2013-12-12T15:49:37Z</time>
      </trkpt>
      <trkpt lat="47.97813" lon="2.19674">
        <ele>1199</ele>
        <time>2013-12-12T15:49:41Z</time>
      </trkpt>
      <trkpt lat="47.98015" lon="2.19783">
        <ele>1199</ele>
        <time>2013-12-12T15:49:45Z</time>
      </trkpt>
      <trkpt lat="47.98215" lon="2.19902">
        <ele>1199.5</ele>
        <time>2013-12-12T15:49:49Z</time>
      </trkpt>
      <trkpt lat="47.9839" lon="2.20009">
        <ele>1200</ele>
        <time>2013-12-12T15:49:52Z</time>
      </trkpt>
      <trkpt lat="47.9854" lon="2.20102">
        <ele>1200</ele>
        <time>2013-12-12T15:49:55Z</time>
      </trkpt>
      <trkpt lat="47.98716" lon="2.20214">
        <ele>1199.75</ele>
        <time>2013-12-12T15:49:59Z</time>
      </trkpt>
      <trkpt lat="47.98917" lon="2.20343">
        <ele>1199</ele>
        <time>2013-12-12T15:50:03Z</time>
      </trkpt>
      <trkpt lat="47.99093" lon="2.20459">
        <ele>1198.3333333333</ele>
        <time>2013-12-12T15:50:06Z</time>
      </trkpt>
      <trkpt lat="47.9927" lon="2.20577">
        <ele>1197.5</ele>
        <time>2013-12-12T15:50:10Z</time>
      </trkpt>
      <trkpt lat="47.99448" lon="2.20695">
        <ele>1196.6666666667</ele>
        <time>2013-12-12T15:50:13Z</time>
      </trkpt>
      <trkpt lat="47.99601" lon="2.2079">
        <ele>1196</ele>
        <time>2013-12-12T15:50:16Z</time>
      </trkpt>
      <trkpt lat="47.9976" lon="2.20865">
        <ele>1195</ele>
        <time>2013-12-12T15:50:19Z</time>
      </trkpt>
      <trkpt lat="47.9995" lon="2.20912">
        <ele>1193.75</ele>
        <time>2013-12-12T15:50:23Z</time>
      </trkpt>
      <trkpt lat="48.00142" lon="2.20917">
        <ele>1193</ele>
        <time>2013-12-12T15:50:26Z</time>
      </trkpt>
      <trkpt lat="48.00332" lon="2.20876">
        <ele>1193</ele>
        <time>2013-12-12T15:50:30Z</time>
      </trkpt>
      <trkpt lat="48.00546" lon="2.20786">
        <ele>1191.75</ele>
        <time>2013-12-12T15:50:34Z</time>
      </trkpt>
      <trkpt lat="48.00755" lon="2.20673">
        <ele>1190.75</ele>
        <time>2013-12-12T15:50:38Z</time>
      </trkpt>
      <trkpt lat="48.0096" lon="2.20557">
        <ele>1190</ele>
        <time>2013-12-12T15:50:42Z</time>
      </trkpt>
      <trkpt lat="48.01166" lon="2.20444">
        <ele>1190.25</ele>
        <time>2013-12-12T15:50:46Z</time>
      </trkpt>
      <trkpt lat="48.01372" lon="2.20342">
        <ele>1191.25</ele>
        <time>2013-12-12T15:50:50Z</time>
      </trkpt>
      <trkpt lat="48.01553" lon="2.20258">
        <ele>1192</ele>
        <time>2013-12-12T15:50:53Z</time>
      </trkpt>
      <trkpt lat="48.02103" lon="2.20041">
        <ele>1193.1666666667</ele>
        <time>2013-12-12T15:51:12Z</time>
      </trkpt>
      <trkpt lat="48.02689" lon="2.19844">
        <ele>1193</ele>
        <time>2013-12-12T15:51:15Z</time>
      </trkpt>
      <trkpt lat="48.02877" lon="2.19784">
        <ele>1193</ele>
        <time>2013-12-12T15:51:19Z</time>
      </trkpt>
      <trkpt lat="48.03065" lon="2.19722">
        <ele>1193</ele>
        <time>2013-12-12T15:51:23Z</time>
      </trkpt>
      <trkpt lat="48.0325" lon="2.19658">
        <ele>1193</ele>
        <time>2013-12-12T15:51:26Z</time>
      </trkpt>
      <trkpt lat="48.03436" lon="2.19591">
        <ele>1193</ele>
        <time>2013-12-12T15:51:29Z</time>
      </trkpt>
      <trkpt lat="48.03648" lon="2.19509">
        <ele>1193</ele>
        <time>2013-12-12T15:51:33Z</time>
      </trkpt>
      <trkpt lat="48.03833" lon="2.19438">
        <ele>1193</ele>
        <time>2013-12-12T15:51:37Z</time>
      </trkpt>
      <trkpt lat="48.04019" lon="2.19365">
        <ele>1193.25</ele>
        <time>2013-12-12T15:51:40Z</time>
      </trkpt>
      <trkpt lat="48.04205" lon="2.19292">
        <ele>1193</ele>
        <time>2013-12-12T15:51:44Z</time>
      </trkpt>
      <trkpt lat="48.04392" lon="2.19217">
        <ele>1194</ele>
        <time>2013-12-12T15:51:48Z</time>
      </trkpt>
      <trkpt lat="48.04603" lon="2.19128">
        <ele>1193</ele>
        <time>2013-12-12T15:51:52Z</time>
      </trkpt>
      <trkpt lat="48.04814" lon="2.19038">
        <ele>1193</ele>
        <time>2013-12-12T15:51:56Z</time>
      </trkpt>
      <trkpt lat="48.05025" lon="2.18946">
        <ele>1193</ele>
        <time>2013-12-12T15:52:00Z</time>
      </trkpt>
      <trkpt lat="48.05234" lon="2.1885">
        <ele>1192.25</ele>
        <time>2013-12-12T15:52:04Z</time>
      </trkpt>
      <trkpt lat="48.05443" lon="2.18751">
        <ele>1192</ele>
        <time>2013-12-12T15:52:08Z</time>
      </trkpt>
      <trkpt lat="48.05624" lon="2.18663">
        <ele>1192</ele>
        <time>2013-12-12T15:52:11Z</time>
      </trkpt>
      <trkpt lat="48.05804" lon="2.18572">
        <ele>1192</ele>
        <time>2013-12-12T15:52:15Z</time>
      </trkpt>
      <trkpt lat="48.0601" lon="2.18466">
        <ele>1192</ele>
        <time>2013-12-12T15:52:19Z</time>
      </trkpt>
      <trkpt lat="48.0619" lon="2.18374">
        <ele>1192.6666666667</ele>
        <time>2013-12-12T15:52:22Z</time>
      </trkpt>
      <trkpt lat="48.06371" lon="2.18282">
        <ele>1192</ele>
        <time>2013-12-12T15:52:26Z</time>
      </trkpt>
      <trkpt lat="48.06553" lon="2.18191">
        <ele>1192</ele>
        <time>2013-12-12T15:52:29Z</time>
      </trkpt>
      <trkpt lat="48.06734" lon="2.18103">
        <ele>1192</ele>
        <time>2013-12-12T15:52:33Z</time>
      </trkpt>
      <trkpt lat="48.06941" lon="2.18003">
        <ele>1192</ele>
        <time>2013-12-12T15:52:37Z</time>
      </trkpt>
      <trkpt lat="48.07147" lon="2.17903">
        <ele>1193</ele>
        <time>2013-12-12T15:52:40Z</time>
      </trkpt>
      <trkpt lat="48.07352" lon="2.17802">
        <ele>1193.25</ele>
        <time>2013-12-12T15:52:45Z</time>
      </trkpt>
      <trkpt lat="48.07559" lon="2.17704">
        <ele>1194</ele>
        <time>2013-12-12T15:52:49Z</time>
      </trkpt>
      <trkpt lat="48.07766" lon="2.17604">
        <ele>1194</ele>
        <time>2013-12-12T15:52:53Z</time>
      </trkpt>
      <trkpt lat="48.07972" lon="2.17499">
        <ele>1194</ele>
        <time>2013-12-12T15:52:57Z</time>
      </trkpt>
      <trkpt lat="48.08151" lon="2.17398">
        <ele>1194</ele>
        <time>2013-12-12T15:53:00Z</time>
      </trkpt>
      <trkpt lat="48.08326" lon="2.17283">
        <ele>1194</ele>
        <time>2013-12-12T15:53:04Z</time>
      </trkpt>
      <trkpt lat="48.08524" lon="2.17144">
        <ele>1193.75</ele>
        <time>2013-12-12T15:53:08Z</time>
      </trkpt>
      <trkpt lat="48.08695" lon="2.1702">
        <ele>1193.6666666667</ele>
        <time>2013-12-12T15:53:11Z</time>
      </trkpt>
      <trkpt lat="48.08867" lon="2.16904">
        <ele>1194.25</ele>
        <time>2013-12-12T15:53:15Z</time>
      </trkpt>
      <trkpt lat="48.09041" lon="2.16797">
        <ele>1195</ele>
        <time>2013-12-12T15:53:18Z</time>
      </trkpt>
      <trkpt lat="48.09215" lon="2.16689">
        <ele>1195.5</ele>
        <time>2013-12-12T15:53:22Z</time>
      </trkpt>
      <trkpt lat="48.09413" lon="2.16566">
        <ele>1196</ele>
        <time>2013-12-12T15:53:26Z</time>
      </trkpt>
      <trkpt lat="48.09589" lon="2.16458">
        <ele>1196</ele>
        <time>2013-12-12T15:53:29Z</time>
      </trkpt>
      <trkpt lat="48.09766" lon="2.16351">
        <ele>1196</ele>
        <time>2013-12-12T15:53:33Z</time>
      </trkpt>
      <trkpt lat="48.09972" lon="2.16228">
        <ele>1195</ele>
        <time>2013-12-12T15:53:37Z</time>
      </trkpt>
      <trkpt lat="48.10178" lon="2.16107">
        <ele>1195</ele>
        <time>2013-12-12T15:53:41Z</time>
      </trkpt>
      <trkpt lat="48.10359" lon="2.16008">
        <ele>1194.3333333333</ele>
        <time>2013-12-12T15:53:44Z</time>
      </trkpt>
      <trkpt lat="48.10544" lon="2.15921">
        <ele>1194.75</ele>
        <time>2013-12-12T15:53:48Z</time>
      </trkpt>
      <trkpt lat="48.10757" lon="2.15837">
        <ele>1195</ele>
        <time>2013-12-12T15:53:52Z</time>
      </trkpt>
      <trkpt lat="48.10946" lon="2.15777">
        <ele>1195</ele>
        <time>2013-12-12T15:53:55Z</time>
      </trkpt>
      <trkpt lat="48.1111" lon="2.15735">
        <ele>1195</ele>
        <time>2013-12-12T15:53:58Z</time>
      </trkpt>
      <trkpt lat="48.11273" lon="2.15696">
        <ele>1195</ele>
        <time>2013-12-12T15:54:01Z</time>
      </trkpt>
      <trkpt lat="48.11437" lon="2.15657">
        <ele>1195</ele>
        <time>2013-12-12T15:54:04Z</time>
      </trkpt>
      <trkpt lat="48.11626" lon="2.15604">
        <ele>1195</ele>
        <time>2013-12-12T15:54:08Z</time>
      </trkpt>
      <trkpt lat="48.11842" lon="2.15534">
        <ele>1195</ele>
        <time>2013-12-12T15:54:11Z</time>
      </trkpt>
      <trkpt lat="48.12057" lon="2.15461">
        <ele>1194.75</ele>
        <time>2013-12-12T15:54:15Z</time>
      </trkpt>
      <trkpt lat="48.12272" lon="2.15386">
        <ele>1195</ele>
        <time>2013-12-12T15:54:19Z</time>
      </trkpt>
      <trkpt lat="48.1246" lon="2.15323">
        <ele>1195</ele>
        <time>2013-12-12T15:54:23Z</time>
      </trkpt>
      <trkpt lat="48.12647" lon="2.15264">
        <ele>1195.25</ele>
        <time>2013-12-12T15:54:26Z</time>
      </trkpt>
      <trkpt lat="48.12862" lon="2.15198">
        <ele>1196</ele>
        <time>2013-12-12T15:54:31Z</time>
      </trkpt>
      <trkpt lat="48.13076" lon="2.15131">
        <ele>1197</ele>
        <time>2013-12-12T15:54:34Z</time>
      </trkpt>
      <trkpt lat="48.13263" lon="2.15071">
        <ele>1197</ele>
        <time>2013-12-12T15:54:37Z</time>
      </trkpt>
      <trkpt lat="48.13425" lon="2.1502">
        <ele>1197</ele>
        <time>2013-12-12T15:54:40Z</time>
      </trkpt>
      <trkpt lat="48.13613" lon="2.14959">
        <ele>1197.75</ele>
        <time>2013-12-12T15:54:44Z</time>
      </trkpt>
      <trkpt lat="48.13829" lon="2.14888">
        <ele>1197.25</ele>
        <time>2013-12-12T15:54:48Z</time>
      </trkpt>
      <trkpt lat="48.14017" lon="2.14824">
        <ele>1197</ele>
        <time>2013-12-12T15:54:51Z</time>
      </trkpt>
      <trkpt lat="48.14178" lon="2.14769">
        <ele>1197.3333333333</ele>
        <time>2013-12-12T15:54:55Z</time>
      </trkpt>
      <trkpt lat="48.14364" lon="2.14702">
        <ele>1197.75</ele>
        <time>2013-12-12T15:54:58Z</time>
      </trkpt>
      <trkpt lat="48.14576" lon="2.14627">
        <ele>1198</ele>
        <time>2013-12-12T15:55:02Z</time>
      </trkpt>
      <trkpt lat="48.14763" lon="2.14565">
        <ele>1198.6666666667</ele>
        <time>2013-12-12T15:55:06Z</time>
      </trkpt>
      <trkpt lat="48.14951" lon="2.14507">
        <ele>1198.5</ele>
        <time>2013-12-12T15:55:09Z</time>
      </trkpt>
      <trkpt lat="48.15141" lon="2.1445">
        <ele>1198</ele>
        <time>2013-12-12T15:55:12Z</time>
      </trkpt>
      <trkpt lat="48.15303" lon="2.144">
        <ele>1197.6666666667</ele>
        <time>2013-12-12T15:55:15Z</time>
      </trkpt>
      <trkpt lat="48.15492" lon="2.14339">
        <ele>1197</ele>
        <time>2013-12-12T15:55:19Z</time>
      </trkpt>
      <trkpt lat="48.1568" lon="2.14278">
        <ele>1197</ele>
        <time>2013-12-12T15:55:22Z</time>
      </trkpt>
      <trkpt lat="48.15868" lon="2.14218">
        <ele>1198</ele>
        <time>2013-12-12T15:55:26Z</time>
      </trkpt>
      <trkpt lat="48.16081" lon="2.14151">
        <ele>1198</ele>
        <time>2013-12-12T15:55:30Z</time>
      </trkpt>
      <trkpt lat="48.16295" lon="2.14083">
        <ele>1198</ele>
        <time>2013-12-12T15:55:34Z</time>
      </trkpt>
      <trkpt lat="48.16482" lon="2.14021">
        <ele>1198.6666666667</ele>
        <time>2013-12-12T15:55:38Z</time>
      </trkpt>
      <trkpt lat="48.16644" lon="2.13967">
        <ele>1199</ele>
        <time>2013-12-12T15:55:41Z</time>
      </trkpt>
      <trkpt lat="48.16833" lon="2.13904">
        <ele>1198</ele>
        <time>2013-12-12T15:55:45Z</time>
      </trkpt>
      <trkpt lat="48.1705" lon="2.13834">
        <ele>1197</ele>
        <time>2013-12-12T15:55:49Z</time>
      </trkpt>
      <trkpt lat="48.17269" lon="2.13774">
        <ele>1196</ele>
        <time>2013-12-12T15:55:53Z</time>
      </trkpt>
      <trkpt lat="48.1746" lon="2.13729">
        <ele>1195</ele>
        <time>2013-12-12T15:55:56Z</time>
      </trkpt>
      <trkpt lat="48.17626" lon="2.137">
        <ele>1195</ele>
        <time>2013-12-12T15:55:59Z</time>
      </trkpt>
      <trkpt lat="48.17818" lon="2.13676">
        <ele>1195.5</ele>
        <time>2013-12-12T15:56:02Z</time>
      </trkpt>
      <trkpt lat="48.18009" lon="2.13661">
        <ele>1194.6666666667</ele>
        <time>2013-12-12T15:56:06Z</time>
      </trkpt>
      <trkpt lat="48.18175" lon="2.13656">
        <ele>1194</ele>
        <time>2013-12-12T15:56:09Z</time>
      </trkpt>
      <trkpt lat="48.1837" lon="2.13658">
        <ele>1193.75</ele>
        <time>2013-12-12T15:56:13Z</time>
      </trkpt>
      <trkpt lat="48.18565" lon="2.13669">
        <ele>1193</ele>
        <time>2013-12-12T15:56:16Z</time>
      </trkpt>
      <trkpt lat="48.1876" lon="2.13683">
        <ele>1193</ele>
        <time>2013-12-12T15:56:20Z</time>
      </trkpt>
      <trkpt lat="48.18955" lon="2.13697">
        <ele>1192.3333333333</ele>
        <time>2013-12-12T15:56:23Z</time>
      </trkpt>
      <trkpt lat="48.19151" lon="2.13706">
        <ele>1192</ele>
        <time>2013-12-12T15:56:26Z</time>
      </trkpt>
      <trkpt lat="48.19374" lon="2.13707">
        <ele>1191</ele>
        <time>2013-12-12T15:56:30Z</time>
      </trkpt>
      <trkpt lat="48.1957" lon="2.13703">
        <ele>1190.3333333333</ele>
        <time>2013-12-12T15:56:34Z</time>
      </trkpt>
      <trkpt lat="48.19766" lon="2.13695">
        <ele>1189.5</ele>
        <time>2013-12-12T15:56:38Z</time>
      </trkpt>
      <trkpt lat="48.19961" lon="2.13688">
        <ele>1189</ele>
        <time>2013-12-12T15:56:41Z</time>
      </trkpt>
      <trkpt lat="48.20128" lon="2.13678">
        <ele>1189</ele>
        <time>2013-12-12T15:56:44Z</time>
      </trkpt>
      <trkpt lat="48.2032" lon="2.13659">
        <ele>1188</ele>
        <time>2013-12-12T15:56:48Z</time>
      </trkpt>
      <trkpt lat="48.20538" lon="2.13626">
        <ele>1186.25</ele>
        <time>2013-12-12T15:56:52Z</time>
      </trkpt>
      <trkpt lat="48.20754" lon="2.13578">
        <ele>1182.5</ele>
        <time>2013-12-12T15:56:55Z</time>
      </trkpt>
      <trkpt lat="48.20945" lon="2.13527">
        <ele>1179</ele>
        <time>2013-12-12T15:56:58Z</time>
      </trkpt>
      <trkpt lat="48.2111" lon="2.13474">
        <ele>1175.6666666667</ele>
        <time>2013-12-12T15:57:02Z</time>
      </trkpt>
      <trkpt lat="48.213" lon="2.13405">
        <ele>1168.75</ele>
        <time>2013-12-12T15:57:06Z</time>
      </trkpt>
      <trkpt lat="48.21487" lon="2.13332">
        <ele>1159</ele>
        <time>2013-12-12T15:57:09Z</time>
      </trkpt>
      <trkpt lat="48.21672" lon="2.13252">
        <ele>1150</ele>
        <time>2013-12-12T15:57:13Z</time>
      </trkpt>
      <trkpt lat="48.21856" lon="2.13168">
        <ele>1140.6666666667</ele>
        <time>2013-12-12T15:57:16Z</time>
      </trkpt>
      <trkpt lat="48.22039" lon="2.13077">
        <ele>1131.5</ele>
        <time>2013-12-12T15:57:20Z</time>
      </trkpt>
      <trkpt lat="48.22221" lon="2.12987">
        <ele>1121.3333333333</ele>
        <time>2013-12-12T15:57:23Z</time>
      </trkpt>
      <trkpt lat="48.22402" lon="2.12892">
        <ele>1111.5</ele>
        <time>2013-12-12T15:57:27Z</time>
      </trkpt>
      <trkpt lat="48.2258" lon="2.12793">
        <ele>1102.3333333333</ele>
        <time>2013-12-12T15:57:30Z</time>
      </trkpt>
      <trkpt lat="48.22733" lon="2.12706">
        <ele>1093.6666666667</ele>
        <time>2013-12-12T15:57:33Z</time>
      </trkpt>
      <trkpt lat="48.22911" lon="2.12613">
        <ele>1082.5</ele>
        <time>2013-12-12T15:57:37Z</time>
      </trkpt>
      <trkpt lat="48.23117" lon="2.12506">
        <ele>1068.75</ele>
        <time>2013-12-12T15:57:41Z</time>
      </trkpt>
      <trkpt lat="48.23322" lon="2.12404">
        <ele>1056</ele>
        <time>2013-12-12T15:57:45Z</time>
      </trkpt>
      <trkpt lat="48.23502" lon="2.12311">
        <ele>1046</ele>
        <time>2013-12-12T15:57:48Z</time>
      </trkpt>
      <trkpt lat="48.23684" lon="2.12221">
        <ele>1035.5</ele>
        <time>2013-12-12T15:57:52Z</time>
      </trkpt>
      <trkpt lat="48.23868" lon="2.12137">
        <ele>1025.3333333333</ele>
        <time>2013-12-12T15:57:55Z</time>
      </trkpt>
      <trkpt lat="48.24027" lon="2.12071">
        <ele>1017</ele>
        <time>2013-12-12T15:57:58Z</time>
      </trkpt>
      <trkpt lat="48.24234" lon="2.1199">
        <ele>1005.2</ele>
        <time>2013-12-12T15:58:01Z</time>
      </trkpt>
      <trkpt lat="48.2444" lon="2.11908">
        <ele>993</ele>
        <time>2013-12-12T15:58:04Z</time>
      </trkpt>
      <trkpt lat="48.24621" lon="2.11839">
        <ele>983</ele>
        <time>2013-12-12T15:58:08Z</time>
      </trkpt>
      <trkpt lat="48.24801" lon="2.11774">
        <ele>973.66666666667</ele>
        <time>2013-12-12T15:58:11Z</time>
      </trkpt>
      <trkpt lat="48.24983" lon="2.1171">
        <ele>965.25</ele>
        <time>2013-12-12T15:58:15Z</time>
      </trkpt>
      <trkpt lat="48.25192" lon="2.11637">
        <ele>955</ele>
        <time>2013-12-12T15:58:19Z</time>
      </trkpt>
      <trkpt lat="48.25401" lon="2.11569">
        <ele>945.5</ele>
        <time>2013-12-12T15:58:23Z</time>
      </trkpt>
      <trkpt lat="48.25585" lon="2.11512">
        <ele>937.66666666667</ele>
        <time>2013-12-12T15:58:26Z</time>
      </trkpt>
      <trkpt lat="48.25768" lon="2.11452">
        <ele>927.75</ele>
        <time>2013-12-12T15:58:30Z</time>
      </trkpt>
      <trkpt lat="48.25949" lon="2.11386">
        <ele>918</ele>
        <time>2013-12-12T15:58:33Z</time>
      </trkpt>
      <trkpt lat="48.26129" lon="2.11313">
        <ele>908.5</ele>
        <time>2013-12-12T15:58:37Z</time>
      </trkpt>
      <trkpt lat="48.26308" lon="2.11239">
        <ele>899.33333333333</ele>
        <time>2013-12-12T15:58:40Z</time>
      </trkpt>
      <trkpt lat="48.26487" lon="2.11164">
        <ele>891.25</ele>
        <time>2013-12-12T15:58:44Z</time>
      </trkpt>
      <trkpt lat="48.26693" lon="2.11075">
        <ele>882.5</ele>
        <time>2013-12-12T15:58:48Z</time>
      </trkpt>
      <trkpt lat="48.26898" lon="2.10985">
        <ele>872.25</ele>
        <time>2013-12-12T15:58:52Z</time>
      </trkpt>
      <trkpt lat="48.27081" lon="2.10907">
        <ele>861.66666666667</ele>
        <time>2013-12-12T15:58:56Z</time>
      </trkpt>
      <trkpt lat="48.27265" lon="2.10828">
        <ele>849</ele>
        <time>2013-12-12T15:59:00Z</time>
      </trkpt>
      <trkpt lat="48.27449" lon="2.10749">
        <ele>835.66666666667</ele>
        <time>2013-12-12T15:59:03Z</time>
      </trkpt>
      <trkpt lat="48.27636" lon="2.10676">
        <ele>822</ele>
        <time>2013-12-12T15:59:07Z</time>
      </trkpt>
      <trkpt lat="48.27829" lon="2.10608">
        <ele>808</ele>
        <time>2013-12-12T15:59:10Z</time>
      </trkpt>
      <trkpt lat="48.28025" lon="2.10542">
        <ele>794.25</ele>
        <time>2013-12-12T15:59:14Z</time>
      </trkpt>
      <trkpt lat="48.2822" lon="2.10477">
        <ele>784</ele>
        <time>2013-12-12T15:59:17Z</time>
      </trkpt>
      <trkpt lat="48.28414" lon="2.10412">
        <ele>777</ele>
        <time>2013-12-12T15:59:21Z</time>
      </trkpt>
      <trkpt lat="48.28635" lon="2.10339">
        <ele>770.75</ele>
        <time>2013-12-12T15:59:25Z</time>
      </trkpt>
      <trkpt lat="48.28859" lon="2.10266">
        <ele>765</ele>
        <time>2013-12-12T15:59:29Z</time>
      </trkpt>
      <trkpt lat="48.29056" lon="2.10204">
        <ele>760</ele>
        <time>2013-12-12T15:59:32Z</time>
      </trkpt>
      <trkpt lat="48.29227" lon="2.10154">
        <ele>757</ele>
        <time>2013-12-12T15:59:35Z</time>
      </trkpt>
      <trkpt lat="48.29429" lon="2.101">
        <ele>754.5</ele>
        <time>2013-12-12T15:59:39Z</time>
      </trkpt>
      <trkpt lat="48.29663" lon="2.1005">
        <ele>751.75</ele>
        <time>2013-12-12T15:59:43Z</time>
      </trkpt>
      <trkpt lat="48.29869" lon="2.10013">
        <ele>749.33333333333</ele>
        <time>2013-12-12T15:59:46Z</time>
      </trkpt>
      <trkpt lat="48.30078" lon="2.09978">
        <ele>745.5</ele>
        <time>2013-12-12T15:59:50Z</time>
      </trkpt>
      <trkpt lat="48.30318" lon="2.09943">
        <ele>739.5</ele>
        <time>2013-12-12T15:59:54Z</time>
      </trkpt>
      <trkpt lat="48.30529" lon="2.09928">
        <ele>733.66666666667</ele>
        <time>2013-12-12T15:59:57Z</time>
      </trkpt>
      <trkpt lat="48.3071" lon="2.09926">
        <ele>730.33333333333</ele>
        <time>2013-12-12T16:00:00Z</time>
      </trkpt>
      <trkpt lat="48.30922" lon="2.09933">
        <ele>725.75</ele>
        <time>2013-12-12T16:00:04Z</time>
      </trkpt>
      <trkpt lat="48.31136" lon="2.09931">
        <ele>721</ele>
        <time>2013-12-12T16:00:07Z</time>
      </trkpt>
      <trkpt lat="48.31319" lon="2.09916">
        <ele>718</ele>
        <time>2013-12-12T16:00:10Z</time>
      </trkpt>
      <trkpt lat="48.31529" lon="2.09889">
        <ele>715.75</ele>
        <time>2013-12-12T16:00:14Z</time>
      </trkpt>
      <trkpt lat="48.31765" lon="2.09859">
        <ele>713</ele>
        <time>2013-12-12T16:00:18Z</time>
      </trkpt>
      <trkpt lat="48.32001" lon="2.09835">
        <ele>711.5</ele>
        <time>2013-12-12T16:00:22Z</time>
      </trkpt>
      <trkpt lat="48.32208" lon="2.09823">
        <ele>709.66666666667</ele>
        <time>2013-12-12T16:00:25Z</time>
      </trkpt>
      <trkpt lat="48.32417" lon="2.09816">
        <ele>708</ele>
        <time>2013-12-12T16:00:29Z</time>
      </trkpt>
      <trkpt lat="48.32658" lon="2.09812">
        <ele>704.5</ele>
        <time>2013-12-12T16:00:33Z</time>
      </trkpt>
      <trkpt lat="48.32872" lon="2.09805">
        <ele>701</ele>
        <time>2013-12-12T16:00:36Z</time>
      </trkpt>
      <trkpt lat="48.33086" lon="2.09786">
        <ele>696.75</ele>
        <time>2013-12-12T16:00:40Z</time>
      </trkpt>
      <trkpt lat="48.33328" lon="2.0976">
        <ele>693.5</ele>
        <time>2013-12-12T16:00:44Z</time>
      </trkpt>
      <trkpt lat="48.33539" lon="2.09751">
        <ele>691.66666666667</ele>
        <time>2013-12-12T16:00:47Z</time>
      </trkpt>
      <trkpt lat="48.33752" lon="2.09767">
        <ele>690.5</ele>
        <time>2013-12-12T16:00:51Z</time>
      </trkpt>
      <trkpt lat="48.33966" lon="2.09804">
        <ele>691</ele>
        <time>2013-12-12T16:00:54Z</time>
      </trkpt>
      <trkpt lat="48.34148" lon="2.09859">
        <ele>689.66666666667</ele>
        <time>2013-12-12T16:00:57Z</time>
      </trkpt>
      <trkpt lat="48.34331" lon="2.09931">
        <ele>688.33333333333</ele>
        <time>2013-12-12T16:01:00Z</time>
      </trkpt>
      <trkpt lat="48.34543" lon="2.10032">
        <ele>686.5</ele>
        <time>2013-12-12T16:01:04Z</time>
      </trkpt>
      <trkpt lat="48.34784" lon="2.10163">
        <ele>684.75</ele>
        <time>2013-12-12T16:01:08Z</time>
      </trkpt>
      <trkpt lat="48.34991" lon="2.10287">
        <ele>683</ele>
        <time>2013-12-12T16:01:11Z</time>
      </trkpt>
      <trkpt lat="48.35167" lon="2.10397">
        <ele>680.66666666667</ele>
        <time>2013-12-12T16:01:14Z</time>
      </trkpt>
      <trkpt lat="48.35371" lon="2.10531">
        <ele>676.5</ele>
        <time>2013-12-12T16:01:18Z</time>
      </trkpt>
      <trkpt lat="48.35572" lon="2.10676">
        <ele>673</ele>
        <time>2013-12-12T16:01:21Z</time>
      </trkpt>
      <trkpt lat="48.35768" lon="2.10837">
        <ele>670.25</ele>
        <time>2013-12-12T16:01:25Z</time>
      </trkpt>
      <trkpt lat="48.35988" lon="2.11035">
        <ele>668</ele>
        <time>2013-12-12T16:01:29Z</time>
      </trkpt>
      <trkpt lat="48.36206" lon="2.11238">
        <ele>662.5</ele>
        <time>2013-12-12T16:01:33Z</time>
      </trkpt>
      <trkpt lat="48.36401" lon="2.11408">
        <ele>657</ele>
        <time>2013-12-12T16:01:36Z</time>
      </trkpt>
      <trkpt lat="48.36601" lon="2.11559">
        <ele>648</ele>
        <time>2013-12-12T16:01:40Z</time>
      </trkpt>
      <trkpt lat="48.3681" lon="2.11686">
        <ele>633</ele>
        <time>2013-12-12T16:01:43Z</time>
      </trkpt>
      <trkpt lat="48.36993" lon="2.1178">
        <ele>618</ele>
        <time>2013-12-12T16:01:46Z</time>
      </trkpt>
      <trkpt lat="48.37208" lon="2.11874">
        <ele>603</ele>
        <time>2013-12-12T16:01:50Z</time>
      </trkpt>
      <trkpt lat="48.37423" lon="2.11953">
        <ele>591</ele>
        <time>2013-12-12T16:01:53Z</time>
      </trkpt>
      <trkpt lat="48.37637" lon="2.12019">
        <ele>583.25</ele>
        <time>2013-12-12T16:01:57Z</time>
      </trkpt>
      <trkpt lat="48.37852" lon="2.12071">
        <ele>578</ele>
        <time>2013-12-12T16:02:00Z</time>
      </trkpt>
      <trkpt lat="48.38066" lon="2.12111">
        <ele>574.75</ele>
        <time>2013-12-12T16:02:04Z</time>
      </trkpt>
      <trkpt lat="48.3828" lon="2.12138">
        <ele>572</ele>
        <time>2013-12-12T16:02:07Z</time>
      </trkpt>
      <trkpt lat="48.38496" lon="2.12141">
        <ele>565.5</ele>
        <time>2013-12-12T16:02:11Z</time>
      </trkpt>
      <trkpt lat="48.38709" lon="2.12131">
        <ele>559</ele>
        <time>2013-12-12T16:02:14Z</time>
      </trkpt>
      <trkpt lat="48.38921" lon="2.12101">
        <ele>553.5</ele>
        <time>2013-12-12T16:02:18Z</time>
      </trkpt>
      <trkpt lat="48.39131" lon="2.12056">
        <ele>547</ele>
        <time>2013-12-12T16:02:21Z</time>
      </trkpt>
      <trkpt lat="48.39343" lon="2.12003">
        <ele>540.5</ele>
        <time>2013-12-12T16:02:25Z</time>
      </trkpt>
      <trkpt lat="48.39582" lon="2.11932">
        <ele>533.25</ele>
        <time>2013-12-12T16:02:29Z</time>
      </trkpt>
      <trkpt lat="48.39789" lon="2.11847">
        <ele>525</ele>
        <time>2013-12-12T16:02:32Z</time>
      </trkpt>
      <trkpt lat="48.39962" lon="2.11755">
        <ele>515</ele>
        <time>2013-12-12T16:02:36Z</time>
      </trkpt>
      <trkpt lat="48.40159" lon="2.11626">
        <ele>502.25</ele>
        <time>2013-12-12T16:02:39Z</time>
      </trkpt>
      <trkpt lat="48.40349" lon="2.11489">
        <ele>492</ele>
        <time>2013-12-12T16:02:42Z</time>
      </trkpt>
      <trkpt lat="48.4053" lon="2.11349">
        <ele>485.5</ele>
        <time>2013-12-12T16:02:46Z</time>
      </trkpt>
      <trkpt lat="48.40708" lon="2.11208">
        <ele>480.33333333333</ele>
        <time>2013-12-12T16:02:49Z</time>
      </trkpt>
      <trkpt lat="48.40857" lon="2.11086">
        <ele>476</ele>
        <time>2013-12-12T16:02:53Z</time>
      </trkpt>
      <trkpt lat="48.41027" lon="2.1094">
        <ele>471.5</ele>
        <time>2013-12-12T16:02:56Z</time>
      </trkpt>
      <trkpt lat="48.4121" lon="2.10752">
        <ele>467.75</ele>
        <time>2013-12-12T16:03:00Z</time>
      </trkpt>
      <trkpt lat="48.41343" lon="2.10555">
        <ele>465.66666666667</ele>
        <time>2013-12-12T16:03:03Z</time>
      </trkpt>
      <trkpt lat="48.41427" lon="2.10359">
        <ele>463.66666666667</ele>
        <time>2013-12-12T16:03:06Z</time>
      </trkpt>
      <trkpt lat="48.41485" lon="2.1011">
        <ele>461.5</ele>
        <time>2013-12-12T16:03:10Z</time>
      </trkpt>
      <trkpt lat="48.41504" lon="2.09853">
        <ele>459.66666666667</ele>
        <time>2013-12-12T16:03:13Z</time>
      </trkpt>
      <trkpt lat="48.41495" lon="2.09633">
        <ele>457.66666666667</ele>
        <time>2013-12-12T16:03:16Z</time>
      </trkpt>
      <trkpt lat="48.41466" lon="2.09418">
        <ele>455</ele>
        <time>2013-12-12T16:03:19Z</time>
      </trkpt>
      <trkpt lat="48.4141" lon="2.09172">
        <ele>451.75</ele>
        <time>2013-12-12T16:03:23Z</time>
      </trkpt>
      <trkpt lat="48.41328" lon="2.08908">
        <ele>448.5</ele>
        <time>2013-12-12T16:03:27Z</time>
      </trkpt>
      <trkpt lat="48.41249" lon="2.08696">
        <ele>445</ele>
        <time>2013-12-12T16:03:30Z</time>
      </trkpt>
      <trkpt lat="48.41174" lon="2.08497">
        <ele>443</ele>
        <time>2013-12-12T16:03:34Z</time>
      </trkpt>
      <trkpt lat="48.41103" lon="2.08312">
        <ele>443</ele>
        <time>2013-12-12T16:03:37Z</time>
      </trkpt>
      <trkpt lat="48.41043" lon="2.08165">
        <ele>444.33333333333</ele>
        <time>2013-12-12T16:03:40Z</time>
      </trkpt>
      <trkpt lat="48.40974" lon="2.08004">
        <ele>447</ele>
        <time>2013-12-12T16:03:44Z</time>
      </trkpt>
      <trkpt lat="48.40902" lon="2.07849">
        <ele>448.66666666667</ele>
        <time>2013-12-12T16:03:47Z</time>
      </trkpt>
      <trkpt lat="48.40823" lon="2.07702">
        <ele>450.25</ele>
        <time>2013-12-12T16:03:51Z</time>
      </trkpt>
      <trkpt lat="48.40725" lon="2.07536">
        <ele>451</ele>
        <time>2013-12-12T16:03:55Z</time>
      </trkpt>
      <trkpt lat="48.4062" lon="2.07369">
        <ele>450.25</ele>
        <time>2013-12-12T16:03:59Z</time>
      </trkpt>
      <trkpt lat="48.40515" lon="2.07196">
        <ele>449.5</ele>
        <time>2013-12-12T16:04:03Z</time>
      </trkpt>
      <trkpt lat="48.40422" lon="2.07044">
        <ele>450</ele>
        <time>2013-12-12T16:04:06Z</time>
      </trkpt>
      <trkpt lat="48.40333" lon="2.069">
        <ele>450.25</ele>
        <time>2013-12-12T16:04:10Z</time>
      </trkpt>
      <trkpt lat="48.40233" lon="2.06743">
        <ele>451</ele>
        <time>2013-12-12T16:04:14Z</time>
      </trkpt>
      <trkpt lat="48.40135" lon="2.06587">
        <ele>451.75</ele>
        <time>2013-12-12T16:04:18Z</time>
      </trkpt>
      <trkpt lat="48.40036" lon="2.06433">
        <ele>452</ele>
        <time>2013-12-12T16:04:22Z</time>
      </trkpt>
      <trkpt lat="48.39949" lon="2.06302">
        <ele>452</ele>
        <time>2013-12-12T16:04:25Z</time>
      </trkpt>
      <trkpt lat="48.39862" lon="2.06167">
        <ele>452</ele>
        <time>2013-12-12T16:04:29Z</time>
      </trkpt>
      <trkpt lat="48.39768" lon="2.06004">
        <ele>451.5</ele>
        <time>2013-12-12T16:04:33Z</time>
      </trkpt>
      <trkpt lat="48.3969" lon="2.05854">
        <ele>451</ele>
        <time>2013-12-12T16:04:36Z</time>
      </trkpt>
      <trkpt lat="48.39615" lon="2.05699">
        <ele>450</ele>
        <time>2013-12-12T16:04:40Z</time>
      </trkpt>
      <trkpt lat="48.39535" lon="2.05514">
        <ele>448</ele>
        <time>2013-12-12T16:04:44Z</time>
      </trkpt>
      <trkpt lat="48.39457" lon="2.05328">
        <ele>446</ele>
        <time>2013-12-12T16:04:48Z</time>
      </trkpt>
      <trkpt lat="48.39376" lon="2.05145">
        <ele>444.5</ele>
        <time>2013-12-12T16:04:52Z</time>
      </trkpt>
      <trkpt lat="48.3929" lon="2.04971">
        <ele>442.75</ele>
        <time>2013-12-12T16:04:56Z</time>
      </trkpt>
      <trkpt lat="48.39214" lon="2.04824">
        <ele>442</ele>
        <time>2013-12-12T16:04:59Z</time>
      </trkpt>
      <trkpt lat="48.39135" lon="2.04682">
        <ele>441.25</ele>
        <time>2013-12-12T16:05:03Z</time>
      </trkpt>
      <trkpt lat="48.39053" lon="2.04544">
        <ele>440.66666666667</ele>
        <time>2013-12-12T16:05:06Z</time>
      </trkpt>
      <trkpt lat="48.38966" lon="2.04414">
        <ele>439.75</ele>
        <time>2013-12-12T16:05:10Z</time>
      </trkpt>
      <trkpt lat="48.38876" lon="2.04286">
        <ele>439</ele>
        <time>2013-12-12T16:05:13Z</time>
      </trkpt>
      <trkpt lat="48.38798" lon="2.04178">
        <ele>438</ele>
        <time>2013-12-12T16:05:16Z</time>
      </trkpt>
      <trkpt lat="48.38706" lon="2.04053">
        <ele>437</ele>
        <time>2013-12-12T16:05:20Z</time>
      </trkpt>
      <trkpt lat="48.38598" lon="2.03913">
        <ele>434.75</ele>
        <time>2013-12-12T16:05:24Z</time>
      </trkpt>
      <trkpt lat="48.38491" lon="2.03774">
        <ele>432.5</ele>
        <time>2013-12-12T16:05:28Z</time>
      </trkpt>
      <trkpt lat="48.38384" lon="2.03637">
        <ele>431.25</ele>
        <time>2013-12-12T16:05:32Z</time>
      </trkpt>
      <trkpt lat="48.38282" lon="2.03533">
        <ele>429.33333333333</ele>
        <time>2013-12-12T16:05:35Z</time>
      </trkpt>
      <trkpt lat="48.38167" lon="2.03471">
        <ele>427</ele>
        <time>2013-12-12T16:05:39Z</time>
      </trkpt>
      <trkpt lat="48.3804" lon="2.03468">
        <ele>424</ele>
        <time>2013-12-12T16:05:42Z</time>
      </trkpt>
      <trkpt lat="48.37906" lon="2.03524">
        <ele>419.5</ele>
        <time>2013-12-12T16:05:46Z</time>
      </trkpt>
      <trkpt lat="48.3776" lon="2.03647">
        <ele>412.25</ele>
        <time>2013-12-12T16:05:50Z</time>
      </trkpt>
      <trkpt lat="48.37622" lon="2.03809">
        <ele>404.5</ele>
        <time>2013-12-12T16:05:54Z</time>
      </trkpt>
      <trkpt lat="48.3749" lon="2.03993">
        <ele>396</ele>
        <time>2013-12-12T16:05:58Z</time>
      </trkpt>
      <trkpt lat="48.3737" lon="2.04173">
        <ele>386</ele>
        <time>2013-12-12T16:06:02Z</time>
      </trkpt>
      <trkpt lat="48.37275" lon="2.04334">
        <ele>378</ele>
        <time>2013-12-12T16:06:05Z</time>
      </trkpt>
      <trkpt lat="48.37187" lon="2.04488">
        <ele>369.75</ele>
        <time>2013-12-12T16:06:09Z</time>
      </trkpt>
      <trkpt lat="48.37108" lon="2.0464">
        <ele>360</ele>
        <time>2013-12-12T16:06:12Z</time>
      </trkpt>
      <trkpt lat="48.37047" lon="2.048">
        <ele>350.5</ele>
        <time>2013-12-12T16:06:16Z</time>
      </trkpt>
      <trkpt lat="48.37018" lon="2.04981">
        <ele>342.33333333333</ele>
        <time>2013-12-12T16:06:19Z</time>
      </trkpt>
      <trkpt lat="48.37039" lon="2.0518">
        <ele>333.5</ele>
        <time>2013-12-12T16:06:23Z</time>
      </trkpt>
      <trkpt lat="48.37112" lon="2.05405">
        <ele>319.25</ele>
        <time>2013-12-12T16:06:27Z</time>
      </trkpt>
      <trkpt lat="48.37187" lon="2.05589">
        <ele>307.33333333333</ele>
        <time>2013-12-12T16:06:30Z</time>
      </trkpt>
      <trkpt lat="48.37261" lon="2.05763">
        <ele>299</ele>
        <time>2013-12-12T16:06:34Z</time>
      </trkpt>
      <trkpt lat="48.37339" lon="2.05953">
        <ele>292.25</ele>
        <time>2013-12-12T16:06:38Z</time>
      </trkpt>
      <trkpt lat="48.37411" lon="2.06136">
        <ele>286.75</ele>
        <time>2013-12-12T16:06:42Z</time>
      </trkpt>
      <trkpt lat="48.37483" lon="2.06314">
        <ele>281.5</ele>
        <time>2013-12-12T16:06:46Z</time>
      </trkpt>
      <trkpt lat="48.3756" lon="2.06489">
        <ele>275.25</ele>
        <time>2013-12-12T16:06:50Z</time>
      </trkpt>
      <trkpt lat="48.37636" lon="2.06663">
        <ele>267.75</ele>
        <time>2013-12-12T16:06:54Z</time>
      </trkpt>
      <trkpt lat="48.37698" lon="2.06812">
        <ele>259.33333333333</ele>
        <time>2013-12-12T16:06:57Z</time>
      </trkpt>
      <trkpt lat="48.3775" lon="2.06935">
        <ele>251.66666666667</ele>
        <time>2013-12-12T16:07:00Z</time>
      </trkpt>
      <trkpt lat="48.37811" lon="2.0707">
        <ele>242.75</ele>
        <time>2013-12-12T16:07:04Z</time>
      </trkpt>
      <trkpt lat="48.37875" lon="2.07218">
        <ele>232.5</ele>
        <time>2013-12-12T16:07:08Z</time>
      </trkpt>
      <trkpt lat="48.37936" lon="2.07355">
        <ele>224</ele>
        <time>2013-12-12T16:07:12Z</time>
      </trkpt>
      <trkpt lat="48.3799" lon="2.07475">
        <ele>217.75</ele>
        <time>2013-12-12T16:07:16Z</time>
      </trkpt>
      <trkpt lat="48.38038" lon="2.07581">
        <ele>213.5</ele>
        <time>2013-12-12T16:07:20Z</time>
      </trkpt>
      <trkpt lat="48.38077" lon="2.07669">
        <ele>210.5</ele>
        <time>2013-12-12T16:07:24Z</time>
      </trkpt>
      <trkpt lat="48.38108" lon="2.07737">
        <ele>208.66666666667</ele>
        <time>2013-12-12T16:07:27Z</time>
      </trkpt>
      <trkpt lat="48.38133" lon="2.07793">
        <ele>207.5</ele>
        <time>2013-12-12T16:07:31Z</time>
      </trkpt>
      <trkpt lat="48.38153" lon="2.07838">
        <ele>206.66666666667</ele>
        <time>2013-12-12T16:07:34Z</time>
      </trkpt>
      <trkpt lat="48.38169" lon="2.07873">
        <ele>206</ele>
        <time>2013-12-12T16:07:37Z</time>
      </trkpt>
      <trkpt lat="48.38186" lon="2.07913">
        <ele>205</ele>
        <time>2013-12-12T16:07:41Z</time>
      </trkpt>
      <trkpt lat="48.38204" lon="2.07953">
        <ele>204.75</ele>
        <time>2013-12-12T16:07:45Z</time>
      </trkpt>
      <trkpt lat="48.38219" lon="2.07988">
        <ele>204</ele>
        <time>2013-12-12T16:07:49Z</time>
      </trkpt>
      <trkpt lat="48.38233" lon="2.08019">
        <ele>204</ele>
        <time>2013-12-12T16:07:53Z</time>
      </trkpt>
      <trkpt lat="48.38237" lon="2.08046">
        <ele>203</ele>
        <time>2013-12-12T16:07:57Z</time>
      </trkpt>
      <trkpt lat="48.38232" lon="2.08064">
        <ele>203</ele>
        <time>2013-12-12T16:08:00Z</time>
      </trkpt>
      <trkpt lat="48.38225" lon="2.08074">
        <ele>203</ele>
        <time>2013-12-12T16:08:03Z</time>
      </trkpt>
      <trkpt lat="48.38215" lon="2.0808">
        <ele>203</ele>
        <time>2013-12-12T16:08:07Z</time>
      </trkpt>
      <trkpt lat="48.38209" lon="2.08081">
        <ele>203</ele>
        <time>2013-12-12T16:08:11Z</time>
      </trkpt>
      <trkpt lat="48.38208" lon="2.08081">
        <ele>203</ele>
        <time>2013-12-12T16:08:15Z</time>
      </trkpt>
      <trkpt lat="48.38208" lon="2.08081">
        <ele>203</ele>
        <time>2013-12-12T16:08:19Z</time>
      </trkpt>
      <trkpt lat="48.38208" lon="2.08081">
        <ele>203</ele>
        <time>2013-12-12T16:08:22Z</time>
      </trkpt>
      <trkpt lat="48.38208" lon="2.08081">
        <ele>203</ele>
        <time>2013-12-12T16:08:26Z</time>
      </trkpt>
      <trkpt lat="48.38208" lon="2.08081">
        <ele>203</ele>
        <time>2013-12-12T16:08:29Z</time>
      </trkpt>
      <trkpt lat="48.38208" lon="2.08081">
        <ele>203</ele>
        <time>2013-12-12T16:08:32Z</time>
      </trkpt>
      <trkpt lat="48.38208" lon="2.08081">
        <ele>203</ele>
        <time>2013-12-12T16:08:36Z</time>
      </trkpt>
      <trkpt lat="48.38208" lon="2.08081">
        <ele>203</ele>
        <time>2013-12-12T16:08:40Z</time>
      </trkpt>
      <trkpt lat="48.38208" lon="2.08081">
        <ele>203</ele>
        <time>2013-12-12T16:08:44Z</time>
      </trkpt>
      <trkpt lat="48.38208" lon="2.08081">
        <ele>203</ele>
        <time>2013-12-12T16:08:47Z</time>
      </trkpt>
      <trkpt lat="48.38208" lon="2.08081">
        <ele>203</ele>
        <time>2013-12-12T16:08:50Z</time>
      </trkpt>
      <trkpt lat="48.38208" lon="2.08081">
        <ele>203</ele>
        <time>2013-12-12T16:08:53Z</time>
      </trkpt>
      <trkpt lat="48.38205" lon="2.08079">
        <ele>202.5</ele>
        <time>2013-12-12T16:08:57Z</time>
      </trkpt>
      <trkpt lat="48.38194" lon="2.08071">
        <ele>201.5</ele>
        <time>2013-12-12T16:09:01Z</time>
      </trkpt>
      <trkpt lat="48.3818" lon="2.0806">
        <ele>199.33333333333</ele>
        <time>2013-12-12T16:09:04Z</time>
      </trkpt>
      <trkpt lat="48.38163" lon="2.08047">
        <ele>198.25</ele>
        <time>2013-12-12T16:09:08Z</time>
      </trkpt>
      <trkpt lat="48.38144" lon="2.08032">
        <ele>197.25</ele>
        <time>2013-12-12T16:09:12Z</time>
      </trkpt>
      <trkpt lat="48.38127" lon="2.08016">
        <ele>197</ele>
        <time>2013-12-12T16:09:15Z</time>
      </trkpt>
      <trkpt lat="48.38112" lon="2.07995">
        <ele>196.5</ele>
        <time>2013-12-12T16:09:19Z</time>
      </trkpt>
      <trkpt lat="48.38098" lon="2.07967">
        <ele>196</ele>
        <time>2013-12-12T16:09:23Z</time>
      </trkpt>
      <trkpt lat="48.38086" lon="2.07939">
        <ele>196</ele>
        <time>2013-12-12T16:09:26Z</time>
      </trkpt>
      <trkpt lat="48.38074" lon="2.07911">
        <ele>196</ele>
        <time>2013-12-12T16:09:30Z</time>
      </trkpt>
      <trkpt lat="48.38062" lon="2.07884">
        <ele>196</ele>
        <time>2013-12-12T16:09:34Z</time>
      </trkpt>
      <trkpt lat="48.38048" lon="2.07861">
        <ele>196</ele>
        <time>2013-12-12T16:09:38Z</time>
      </trkpt>
      <trkpt lat="48.38034" lon="2.07852">
        <ele>196</ele>
        <time>2013-12-12T16:09:41Z</time>
      </trkpt>
      <trkpt lat="48.38023" lon="2.07845">
        <ele>196</ele>
        <time>2013-12-12T16:09:45Z</time>
      </trkpt>
      <trkpt lat="48.38016" lon="2.07838">
        <ele>196</ele>
        <time>2013-12-12T16:09:48Z</time>
      </trkpt>
      <trkpt lat="48.38014" lon="2.07834">
        <ele>196</ele>
        <time>2013-12-12T16:09:52Z</time>
      </trkpt>
      <trkpt lat="48.38013" lon="2.07834">
        <ele>196</ele>
        <time>2013-12-12T16:09:56Z</time>
      </trkpt>
      <trkpt lat="48.38013" lon="2.07834">
        <ele>196</ele>
        <time>2013-12-12T16:10:00Z</time>
      </trkpt>
      <trkpt lat="48.38013" lon="2.07834">
        <ele>196</ele>
        <time>2013-12-12T16:10:03Z</time>
      </trkpt>
    </trkseg>
  </trk>
</gpx>